Observation data for Odell on 07/18/2019      Previous  Date       Current Mesonet Observations  Soil Data  Daily Summary Page  Observations in Plain Language
KOD1 180500Z 16010KT 30/20 A2992 RMK A01 T02960195  RH  055%=      5-min Rain = 0
KOD1 180501Z 15012KT 30/20 A2992 RMK A01 T02950195  RH  055%=      5-min Rain = 0
KOD1 180502Z 15011KT 30/20 A2992 RMK A01 T02950195  RH  055%=      5-min Rain = 0
KOD1 180503Z 16011KT 30/20 A2992 RMK A01 T02950195  RH  055%=      5-min Rain = 0
KOD1 180504Z 15011KT 29/20 A2992 RMK A01 T02940195  RH  055%=      5-min Rain = 0
KOD1 180505Z 15011KT 29/20 A2992 RMK A01 T02940195  RH  055%=      5-min Rain = 0
KOD1 180506Z 15013KT 29/20 A2992 RMK A01 T02940195  RH  055%=      5-min Rain = 0
KOD1 180507Z 16011KT 29/20 A2992 RMK A01 T02940195  RH  055%=      5-min Rain = 0
KOD1 180508Z 16011KT 29/20 A2992 RMK A01 T02940195  RH  055%=      5-min Rain = 0
KOD1 180509Z 15011KT 29/20 A2992 RMK A01 T02940195  RH  055%=      5-min Rain = 0
KOD1 180510Z 16012KT 29/20 A2992 RMK A01 T02940195  RH  055%=      5-min Rain = 0
KOD1 180511Z 16010KT 29/20 A2992 RMK A01 T02940195  RH  055%=      5-min Rain = 0
KOD1 180512Z 16011KT 29/20 A2992 RMK A01 T02940195  RH  055%=      5-min Rain = 0
KOD1 180513Z 16011KT 29/20 A2992 RMK A01 T02930195  RH  055%=      5-min Rain = 0
KOD1 180514Z 16012KT 29/20 A2992 RMK A01 T02930195  RH  056%=      5-min Rain = 0
KOD1 180515Z 16013KT 29/20 A2992 RMK A01 T02930195  RH  056%=      5-min Rain = 0
KOD1 180516Z 16011KT 29/20 A2992 RMK A01 T02930195  RH  056%=      5-min Rain = 0
KOD1 180517Z 16012KT 29/20 A2992 RMK A01 T02930195  RH  056%=      5-min Rain = 0
KOD1 180518Z 16012KT 29/20 A2992 RMK A01 T02930195  RH  056%=      5-min Rain = 0
KOD1 180519Z 16010KT 29/20 A2992 RMK A01 T02920195  RH  056%=      5-min Rain = 0
KOD1 180520Z 15011KT 29/20 A2992 RMK A01 T02920195  RH  056%=      5-min Rain = 0
KOD1 180521Z 15013KT 29/20 A2992 RMK A01 T02920195  RH  056%=      5-min Rain = 0
KOD1 180522Z 16012KT 29/20 A2992 RMK A01 T02920195  RH  056%=      5-min Rain = 0
KOD1 180523Z 16013KT 29/20 A2992 RMK A01 T02920195  RH  056%=      5-min Rain = 0
KOD1 180524Z 16011KT 29/20 A2992 RMK A01 T02930195  RH  056%=      5-min Rain = 0
KOD1 180525Z 16010KT 29/20 A2992 RMK A01 T02920196  RH  056%=      5-min Rain = 0
KOD1 180526Z 16011KT 29/20 A2992 RMK A01 T02910195  RH  056%=      5-min Rain = 0
KOD1 180527Z 16012KT 29/20 A2992 RMK A01 T02910195  RH  056%=      5-min Rain = 0
KOD1 180528Z 16011KT 29/20 A2992 RMK A01 T02910195  RH  056%=      5-min Rain = 0
KOD1 180529Z 16011KT 29/20 A2992 RMK A01 T02900195  RH  057%=      5-min Rain = 0
KOD1 180530Z 16011KT 29/20 A2992 RMK A01 T02900195  RH  057%=      5-min Rain = 0
KOD1 180531Z 16013KT 29/20 A2992 RMK A01 T02910195  RH  056%=      5-min Rain = 0
KOD1 180532Z 16010KT 29/20 A2992 RMK A01 T02910195  RH  056%=      5-min Rain = 0
KOD1 180533Z 16012KT 29/20 A2992 RMK A01 T02900195  RH  056%=      5-min Rain = 0
KOD1 180534Z 16011KT 29/20 A2992 RMK A01 T02910195  RH  056%=      5-min Rain = 0
KOD1 180535Z 16009KT 29/20 A2992 RMK A01 T02900195  RH  056%=      5-min Rain = 0
KOD1 180536Z 16009KT 29/20 A2992 RMK A01 T02890195  RH  057%=      5-min Rain = 0
KOD1 180537Z 16009KT 29/20 A2992 RMK A01 T02890196  RH  057%=      5-min Rain = 0
KOD1 180538Z 15011KT 29/20 A2992 RMK A01 T02880195  RH  057%=      5-min Rain = 0
KOD1 180539Z 16009KT 29/20 A2992 RMK A01 T02880195  RH  057%=      5-min Rain = 0
KOD1 180540Z 16010KT 29/20 A2992 RMK A01 T02880195  RH  057%=      5-min Rain = 0
KOD1 180541Z 16011KT 29/20 A2992 RMK A01 T02880195  RH  057%=      5-min Rain = 0
KOD1 180542Z 16012KT 29/20 A2992 RMK A01 T02890195  RH  057%=      5-min Rain = 0
KOD1 180543Z 16010KT 29/20 A2992 RMK A01 T02900195  RH  057%=      5-min Rain = 0
KOD1 180544Z 16010KT 29/20 A2993 RMK A01 T02890196  RH  057%=      5-min Rain = 0
KOD1 180545Z 16011KT 29/20 A2993 RMK A01 T02880195  RH  057%=      5-min Rain = 0
KOD1 180546Z 15010KT 29/20 A2993 RMK A01 T02880196  RH  057%=      5-min Rain = 0
KOD1 180547Z 15012G17KT 29/20 A2992 RMK A01 T02880195  RH  057%=      5-min Rain = 0
KOD1 180548Z 15011KT 29/20 A2992 RMK A01 T02890195  RH  057%=      5-min Rain = 0
KOD1 180549Z 16010KT 29/20 A2992 RMK A01 T02890195  RH  057%=      5-min Rain = 0
KOD1 180550Z 15010KT 29/20 A2992 RMK A01 T02880195  RH  057%=      5-min Rain = 0
KOD1 180551Z 16011KT 29/20 A2992 RMK A01 T02870196  RH  058%=      5-min Rain = 0
KOD1 180552Z 15011KT 29/20 A2992 RMK A01 T02870195  RH  058%=      5-min Rain = 0
KOD1 180553Z 16011KT 29/20 A2992 RMK A01 T02870195  RH  058%=      5-min Rain = 0
KOD1 180554Z 16011KT 29/20 A2992 RMK A01 T02870195  RH  058%=      5-min Rain = 0
KOD1 180555Z 16012KT 29/20 A2992 RMK A01 T02870195  RH  058%=      5-min Rain = 0
KOD1 180556Z 15011KT 29/20 A2992 RMK A01 T02870195  RH  058%=      5-min Rain = 0
KOD1 180557Z 16011KT 29/20 A2992 RMK A01 T02870195  RH  058%=      5-min Rain = 0
KOD1 180558Z 16011KT 29/20 A2992 RMK A01 T02870195  RH  058%=      5-min Rain = 0
KOD1 180559Z 15011KT 29/20 A2992 RMK A01 T02860195  RH  058%=      5-min Rain = 0
KOD1 180600Z 15009KT 29/20 A2992 RMK A01 T02860195  RH  058%=      5-min Rain = 0
KOD1 180601Z 15010KT 29/20 A2992 RMK A01 T02850195  RH  058%=      5-min Rain = 0
KOD1 180602Z 16012KT 29/20 A2992 RMK A01 T02850195  RH  058%=      5-min Rain = 0
KOD1 180603Z 15009KT 29/20 A2992 RMK A01 T02850195  RH  058%=      5-min Rain = 0
KOD1 180604Z 16010KT 29/20 A2992 RMK A01 T02850195  RH  058%=      5-min Rain = 0
KOD1 180605Z 16011KT 29/20 A2992 RMK A01 T02850195  RH  058%=      5-min Rain = 0
KOD1 180606Z 16010KT 29/20 A2992 RMK A01 T02850195  RH  058%=      5-min Rain = 0
KOD1 180607Z 16009KT 28/20 A2992 RMK A01 T02840195  RH  059%=      5-min Rain = 0
KOD1 180608Z 16010KT 28/20 A2992 RMK A01 T02830195  RH  059%=      5-min Rain = 0
KOD1 180609Z 15010KT 28/20 A2992 RMK A01 T02830195  RH  059%=      5-min Rain = 0
KOD1 180610Z 15009KT 28/20 A2992 RMK A01 T02840195  RH  059%=      5-min Rain = 0
KOD1 180611Z 15011KT 28/20 A2992 RMK A01 T02830195  RH  059%=      5-min Rain = 0
KOD1 180612Z 15010KT 28/20 A2992 RMK A01 T02830195  RH  059%=      5-min Rain = 0
KOD1 180613Z 15011KT 28/20 A2992 RMK A01 T02820195  RH  059%=      5-min Rain = 0
KOD1 180614Z 15010KT 28/19 A2992 RMK A01 T02820194  RH  059%=      5-min Rain = 0
KOD1 180615Z 15010KT 28/19 A2992 RMK A01 T02820194  RH  059%=      5-min Rain = 0
KOD1 180616Z 15011KT 28/19 A2992 RMK A01 T02820194  RH  059%=      5-min Rain = 0
KOD1 180617Z 15010KT 28/19 A2992 RMK A01 T02820194  RH  059%=      5-min Rain = 0
KOD1 180618Z 15010KT 28/20 A2992 RMK A01 T02820195  RH  059%=      5-min Rain = 0
KOD1 180619Z 15011KT 28/20 A2992 RMK A01 T02810195  RH  059%=      5-min Rain = 0
KOD1 180620Z 15011KT 28/19 A2992 RMK A01 T02810194  RH  059%=      5-min Rain = 0
KOD1 180621Z 15011KT 28/20 A2992 RMK A01 T02810195  RH  059%=      5-min Rain = 0
KOD1 180622Z 15011KT 28/19 A2992 RMK A01 T02810194  RH  059%=      5-min Rain = 0
KOD1 180623Z 15011KT 28/19 A2992 RMK A01 T02810194  RH  059%=      5-min Rain = 0
KOD1 180624Z 15011KT 28/19 A2992 RMK A01 T02820194  RH  059%=      5-min Rain = 0
KOD1 180625Z 16010KT 28/19 A2992 RMK A01 T02810194  RH  059%=      5-min Rain = 0
KOD1 180626Z 16010KT 28/19 A2992 RMK A01 T02800194  RH  059%=      5-min Rain = 0
KOD1 180627Z 15009KT 28/19 A2992 RMK A01 T02800194  RH  059%=      5-min Rain = 0
KOD1 180628Z 16010KT 28/20 A2992 RMK A01 T02800195  RH  060%=      5-min Rain = 0
KOD1 180629Z 15011KT 28/19 A2992 RMK A01 T02800194  RH  060%=      5-min Rain = 0
KOD1 180630Z 16011KT 28/19 A2992 RMK A01 T02800194  RH  059%=      5-min Rain = 0
KOD1 180631Z 15011KT 28/19 A2992 RMK A01 T02800194  RH  059%=      5-min Rain = 0
KOD1 180632Z 16011KT 28/19 A2992 RMK A01 T02800194  RH  059%=      5-min Rain = 0
KOD1 180633Z 15010KT 28/19 A2992 RMK A01 T02800194  RH  060%=      5-min Rain = 0
KOD1 180634Z 16010KT 28/19 A2992 RMK A01 T02800194  RH  059%=      5-min Rain = 0
KOD1 180635Z 15010KT 28/19 A2992 RMK A01 T02800194  RH  059%=      5-min Rain = 0
KOD1 180636Z 15011KT 28/19 A2992 RMK A01 T02800194  RH  060%=      5-min Rain = 0
KOD1 180637Z 15010KT 28/19 A2992 RMK A01 T02800194  RH  059%=      5-min Rain = 0
KOD1 180638Z 15011KT 28/19 A2992 RMK A01 T02800194  RH  059%=      5-min Rain = 0
KOD1 180639Z 15012KT 28/19 A2992 RMK A01 T02810194  RH  059%=      5-min Rain = 0
KOD1 180640Z 16011KT 28/19 A2992 RMK A01 T02810194  RH  059%=      5-min Rain = 0
KOD1 180641Z 16011KT 28/19 A2992 RMK A01 T02810194  RH  059%=      5-min Rain = 0
KOD1 180642Z 15011KT 28/19 A2992 RMK A01 T02800194  RH  059%=      5-min Rain = 0
KOD1 180643Z 16010KT 28/19 A2992 RMK A01 T02800194  RH  059%=      5-min Rain = 0
KOD1 180644Z 15013KT 28/19 A2992 RMK A01 T02810194  RH  059%=      5-min Rain = 0
KOD1 180645Z 15012KT 28/19 A2992 RMK A01 T02820193  RH  059%=      5-min Rain = 0
KOD1 180646Z 16010KT 28/19 A2992 RMK A01 T02820194  RH  059%=      5-min Rain = 0
KOD1 180647Z 16011KT 28/19 A2992 RMK A01 T02810194  RH  059%=      5-min Rain = 0
KOD1 180648Z 16012KT 28/19 A2992 RMK A01 T02810193  RH  059%=      5-min Rain = 0
KOD1 180649Z 16010KT 28/19 A2992 RMK A01 T02810194  RH  059%=      5-min Rain = 0
KOD1 180650Z 16011KT 28/19 A2992 RMK A01 T02800193  RH  059%=      5-min Rain = 0
KOD1 180651Z 16011KT 28/19 A2992 RMK A01 T02800193  RH  059%=      5-min Rain = 0
KOD1 180652Z 16011KT 28/19 A2992 RMK A01 T02800193  RH  059%=      5-min Rain = 0
KOD1 180653Z 16011KT 28/19 A2992 RMK A01 T02800193  RH  059%=      5-min Rain = 0
KOD1 180654Z 16012KT 28/19 A2992 RMK A01 T02810193  RH  059%=      5-min Rain = 0
KOD1 180655Z 16012KT 28/19 A2992 RMK A01 T02810193  RH  059%=      5-min Rain = 0
KOD1 180656Z 16011KT 28/19 A2992 RMK A01 T02810193  RH  059%=      5-min Rain = 0
KOD1 180657Z 16014KT 28/19 A2992 RMK A01 T02810193  RH  059%=      5-min Rain = 0
KOD1 180658Z 16014KT 28/19 A2991 RMK A01 T02810192  RH  059%=      5-min Rain = 0
KOD1 180659Z 16015KT 28/19 A2991 RMK A01 T02820193  RH  058%=      5-min Rain = 0
KOD1 180700Z 16013KT 28/19 A2991 RMK A01 T02820193  RH  058%=      5-min Rain = 0
KOD1 180701Z 16011KT 28/19 A2991 RMK A01 T02820193  RH  058%=      5-min Rain = 0
KOD1 180702Z 16013KT 28/19 A2991 RMK A01 T02810193  RH  059%=      5-min Rain = 0
KOD1 180703Z 16013KT 28/19 A2991 RMK A01 T02820192  RH  058%=      5-min Rain = 0
KOD1 180704Z 15015KT 28/19 A2991 RMK A01 T02820192  RH  058%=      5-min Rain = 0
KOD1 180705Z 16015KT 28/19 A2991 RMK A01 T02820192  RH  058%=      5-min Rain = 0
KOD1 180706Z 16014G19KT 28/19 A2991 RMK A01 T02820192  RH  058%=      5-min Rain = 0
KOD1 180707Z 16013KT 28/19 A2991 RMK A01 T02820192  RH  058%=      5-min Rain = 0
KOD1 180708Z 16012KT 28/19 A2991 RMK A01 T02820192  RH  058%=      5-min Rain = 0
KOD1 180709Z 16014G19KT 28/19 A2991 RMK A01 T02810192  RH  058%=      5-min Rain = 0
KOD1 180710Z 17013KT 28/19 A2991 RMK A01 T02820192  RH  058%=      5-min Rain = 0
KOD1 180711Z 16011KT 28/19 A2991 RMK A01 T02810192  RH  058%=      5-min Rain = 0
KOD1 180712Z 16012KT 28/19 A2991 RMK A01 T02810192  RH  059%=      5-min Rain = 0
KOD1 180713Z 16014G19KT 28/19 A2991 RMK A01 T02810192  RH  058%=      5-min Rain = 0
KOD1 180714Z 16014KT 28/19 A2991 RMK A01 T02820192  RH  058%=      5-min Rain = 0
KOD1 180715Z 16014KT 28/19 A2991 RMK A01 T02820192  RH  058%=      5-min Rain = 0
KOD1 180716Z 17014KT 28/19 A2991 RMK A01 T02820192  RH  058%=      5-min Rain = 0
KOD1 180717Z 16013KT 28/19 A2991 RMK A01 T02810192  RH  058%=      5-min Rain = 0
KOD1 180718Z 16013KT 28/19 A2991 RMK A01 T02810192  RH  058%=      5-min Rain = 0
KOD1 180719Z 16013KT 28/19 A2991 RMK A01 T02810192  RH  058%=      5-min Rain = 0
KOD1 180720Z 16015KT 28/19 A2991 RMK A01 T02810191  RH  058%=      5-min Rain = 0
KOD1 180721Z 17014G19KT 28/19 A2991 RMK A01 T02820191  RH  058%=      5-min Rain = 0
KOD1 180722Z 16013KT 28/19 A2991 RMK A01 T02820191  RH  058%=      5-min Rain = 0
KOD1 180723Z 16014KT 28/19 A2991 RMK A01 T02820192  RH  058%=      5-min Rain = 0
KOD1 180724Z 16015KT 28/19 A2991 RMK A01 T02820191  RH  058%=      5-min Rain = 0
KOD1 180725Z 17017KT 28/19 A2991 RMK A01 T02820191  RH  058%=      5-min Rain = 0
KOD1 180726Z 16012KT 28/19 A2991 RMK A01 T02820191  RH  058%=      5-min Rain = 0
KOD1 180727Z 17014KT 28/19 A2991 RMK A01 T02820191  RH  058%=      5-min Rain = 0
KOD1 180728Z 17014KT 28/19 A2991 RMK A01 T02820191  RH  058%=      5-min Rain = 0
KOD1 180729Z 16014KT 28/19 A2991 RMK A01 T02820191  RH  058%=      5-min Rain = 0
KOD1 180730Z 16014KT 28/19 A2991 RMK A01 T02820191  RH  058%=      5-min Rain = 0
KOD1 180731Z 16014KT 28/19 A2991 RMK A01 T02810191  RH  058%=      5-min Rain = 0
KOD1 180732Z 17013KT 28/19 A2991 RMK A01 T02810191  RH  058%=      5-min Rain = 0
KOD1 180733Z 16015KT 28/19 A2991 RMK A01 T02810191  RH  058%=      5-min Rain = 0
KOD1 180734Z 17012KT 28/19 A2991 RMK A01 T02810191  RH  058%=      5-min Rain = 0
KOD1 180735Z 17014KT 28/19 A2991 RMK A01 T02810191  RH  058%=      5-min Rain = 0
KOD1 180736Z 16013KT 28/19 A2991 RMK A01 T02810191  RH  058%=      5-min Rain = 0
KOD1 180737Z 17014KT 28/19 A2991 RMK A01 T02800191  RH  058%=      5-min Rain = 0
KOD1 180738Z 16014KT 28/19 A2991 RMK A01 T02800191  RH  058%=      5-min Rain = 0
KOD1 180739Z 16015KT 28/19 A2991 RMK A01 T02800191  RH  058%=      5-min Rain = 0
KOD1 180740Z 17012KT 28/19 A2991 RMK A01 T02810191  RH  058%=      5-min Rain = 0
KOD1 180741Z 16013G18KT 28/19 A2991 RMK A01 T02800191  RH  058%=      5-min Rain = 0
KOD1 180742Z 16014KT 28/19 A2991 RMK A01 T02800191  RH  059%=      5-min Rain = 0
KOD1 180743Z 17013KT 28/19 A2991 RMK A01 T02800191  RH  059%=      5-min Rain = 0
KOD1 180744Z 16013KT 28/19 A2991 RMK A01 T02790191  RH  059%=      5-min Rain = 0
KOD1 180745Z 17012KT 28/19 A2991 RMK A01 T02790191  RH  059%=      5-min Rain = 0
KOD1 180746Z 16012KT 28/19 A2991 RMK A01 T02780191  RH  059%=      5-min Rain = 0
KOD1 180747Z 16015KT 28/19 A2991 RMK A01 T02790191  RH  059%=      5-min Rain = 0
KOD1 180748Z 17015KT 28/19 A2991 RMK A01 T02790191  RH  059%=      5-min Rain = 0
KOD1 180749Z 17013KT 28/19 A2991 RMK A01 T02800191  RH  058%=      5-min Rain = 0
KOD1 180750Z 17012KT 28/19 A2991 RMK A01 T02790191  RH  059%=      5-min Rain = 0
KOD1 180751Z 16015KT 28/19 A2991 RMK A01 T02790191  RH  059%=      5-min Rain = 0
KOD1 180752Z 16014KT 28/19 A2991 RMK A01 T02790191  RH  059%=      5-min Rain = 0
KOD1 180753Z 16015KT 28/19 A2991 RMK A01 T02790191  RH  059%=      5-min Rain = 0
KOD1 180754Z 16014KT 28/19 A2991 RMK A01 T02790191  RH  059%=      5-min Rain = 0
KOD1 180755Z 16013KT 28/19 A2991 RMK A01 T02780191  RH  059%=      5-min Rain = 0
KOD1 180756Z 16013KT 28/19 A2991 RMK A01 T02780191  RH  059%=      5-min Rain = 0
KOD1 180757Z 16014KT 28/19 A2991 RMK A01 T02780191  RH  059%=      5-min Rain = 0
KOD1 180758Z 16012KT 28/19 A2991 RMK A01 T02780191  RH  059%=      5-min Rain = 0
KOD1 180759Z 16014KT 28/19 A2991 RMK A01 T02780191  RH  059%=      5-min Rain = 0
KOD1 180800Z 16012KT 28/19 A2991 RMK A01 T02780191  RH  059%=      5-min Rain = 0
KOD1 180801Z 17015KT 28/19 A2991 RMK A01 T02780191  RH  059%=      5-min Rain = 0
KOD1 180802Z 16013KT 28/19 A2991 RMK A01 T02780191  RH  059%=      5-min Rain = 0
KOD1 180803Z 16012KT 28/19 A2991 RMK A01 T02780191  RH  059%=      5-min Rain = 0
KOD1 180804Z 16017KT 28/19 A2991 RMK A01 T02780190  RH  059%=      5-min Rain = 0
KOD1 180805Z 16015KT 28/19 A2991 RMK A01 T02790190  RH  058%=      5-min Rain = 0
KOD1 180806Z 16014KT 28/19 A2991 RMK A01 T02790190  RH  059%=      5-min Rain = 0
KOD1 180807Z 16016KT 28/19 A2991 RMK A01 T02780190  RH  059%=      5-min Rain = 0
KOD1 180808Z 16015KT 28/19 A2991 RMK A01 T02780190  RH  059%=      5-min Rain = 0
KOD1 180809Z 16014KT 28/19 A2991 RMK A01 T02780190  RH  059%=      5-min Rain = 0
KOD1 180810Z 16013KT 28/19 A2991 RMK A01 T02780191  RH  059%=      5-min Rain = 0
KOD1 180811Z 16013KT 28/19 A299 RMK A01 T02770191  RH  059%=      5-min Rain = 0
KOD1 180812Z 16015KT 28/19 A299 RMK A01 T02770190  RH  059%=      5-min Rain = 0
KOD1 180813Z 16014KT 28/19 A299 RMK A01 T02770190  RH  059%=      5-min Rain = 0
KOD1 180814Z 16014KT 28/19 A299 RMK A01 T02780190  RH  059%=      5-min Rain = 0
KOD1 180815Z 16015KT 28/19 A299 RMK A01 T02770190  RH  059%=      5-min Rain = 0
KOD1 180816Z 16015KT 28/19 A299 RMK A01 T02770190  RH  059%=      5-min Rain = 0
KOD1 180817Z 16014KT 28/19 A299 RMK A01 T02770190  RH  059%=      5-min Rain = 0
KOD1 180818Z 16015KT 28/19 A299 RMK A01 T02770190  RH  059%=      5-min Rain = 0
KOD1 180819Z 16013KT 28/19 A299 RMK A01 T02770191  RH  059%=      5-min Rain = 0
KOD1 180820Z 17013KT 28/19 A299 RMK A01 T02760191  RH  060%=      5-min Rain = 0
KOD1 180821Z 16015KT 28/19 A299 RMK A01 T02760191  RH  060%=      5-min Rain = 0
KOD1 180822Z 16012KT 28/19 A299 RMK A01 T02760191  RH  060%=      5-min Rain = 0
KOD1 180823Z 17015KT 28/19 A299 RMK A01 T02760191  RH  060%=      5-min Rain = 0
KOD1 180824Z 16013KT 28/19 A299 RMK A01 T02750190  RH  060%=      5-min Rain = 0
KOD1 180825Z 16015KT 28/19 A299 RMK A01 T02750191  RH  060%=      5-min Rain = 0
KOD1 180826Z 16017KT 28/19 A299 RMK A01 T02750191  RH  060%=      5-min Rain = 0
KOD1 180827Z 17016G21KT 28/19 A299 RMK A01 T02760190  RH  059%=      5-min Rain = 0
KOD1 180828Z 16014KT 28/19 A299 RMK A01 T02760191  RH  060%=      5-min Rain = 0
KOD1 180829Z 17013KT 28/19 A299 RMK A01 T02760191  RH  060%=      5-min Rain = 0
KOD1 180830Z 16014KT 28/19 A2991 RMK A01 T02750191  RH  060%=      5-min Rain = 0
KOD1 180831Z 17015KT 28/19 A299 RMK A01 T02750191  RH  060%=      5-min Rain = 0
KOD1 180832Z 16015G20KT 28/19 A2991 RMK A01 T02750191  RH  060%=      5-min Rain = 0
KOD1 180833Z 16014KT 28/19 A2991 RMK A01 T02750191  RH  060%=      5-min Rain = 0
KOD1 180834Z 16015KT 28/19 A2991 RMK A01 T02750191  RH  060%=      5-min Rain = 0
KOD1 180835Z 16015KT 28/19 A2991 RMK A01 T02750191  RH  060%=      5-min Rain = 0
KOD1 180836Z 16014KT 28/19 A299 RMK A01 T02750191  RH  060%=      5-min Rain = 0
KOD1 180837Z 16015KT 27/19 A299 RMK A01 T02740191  RH  060%=      5-min Rain = 0
KOD1 180838Z 16013KT 27/19 A2991 RMK A01 T02730191  RH  061%=      5-min Rain = 0
KOD1 180839Z 16014KT 27/19 A2991 RMK A01 T02730191  RH  061%=      5-min Rain = 0
KOD1 180840Z 17014KT 27/19 A2991 RMK A01 T02730191  RH  061%=      5-min Rain = 0
KOD1 180841Z 17013KT 27/19 A2991 RMK A01 T02730191  RH  061%=      5-min Rain = 0
KOD1 180842Z 17013KT 27/19 A2991 RMK A01 T02720191  RH  061%=      5-min Rain = 0
KOD1 180843Z 17012KT 27/19 A2991 RMK A01 T02720191  RH  061%=      5-min Rain = 0
KOD1 180844Z 17014KT 27/19 A2991 RMK A01 T02720191  RH  061%=      5-min Rain = 0
KOD1 180845Z 16015KT 27/19 A2991 RMK A01 T02720191  RH  061%=      5-min Rain = 0
KOD1 180846Z 16016KT 27/19 A2991 RMK A01 T02720191  RH  061%=      5-min Rain = 0
KOD1 180847Z 17014KT 27/19 A299 RMK A01 T02730191  RH  061%=      5-min Rain = 0
KOD1 180848Z 16015KT 27/19 A2991 RMK A01 T02730191  RH  061%=      5-min Rain = 0
KOD1 180849Z 16015KT 27/19 A2991 RMK A01 T02730191  RH  061%=      5-min Rain = 0
KOD1 180850Z 16015KT 27/19 A299 RMK A01 T02730191  RH  061%=      5-min Rain = 0
KOD1 180851Z 16017KT 27/19 A299 RMK A01 T02720191  RH  061%=      5-min Rain = 0
KOD1 180852Z 16015KT 27/19 A2991 RMK A01 T02730191  RH  061%=      5-min Rain = 0
KOD1 180853Z 16014KT 27/19 A2991 RMK A01 T02730191  RH  061%=      5-min Rain = 0
KOD1 180854Z 17012KT 27/19 A2991 RMK A01 T02720191  RH  061%=      5-min Rain = 0
KOD1 180855Z 17014KT 27/19 A2991 RMK A01 T02720191  RH  061%=      5-min Rain = 0
KOD1 180856Z 16013G18KT 27/19 A2991 RMK A01 T02710191  RH  061%=      5-min Rain = 0
KOD1 180857Z 17015KT 27/19 A2991 RMK A01 T02710191  RH  061%=      5-min Rain = 0
KOD1 180858Z 17013KT 27/19 A2991 RMK A01 T02710191  RH  061%=      5-min Rain = 0
KOD1 180859Z 17014KT 27/19 A2991 RMK A01 T02710191  RH  061%=      5-min Rain = 0
KOD1 180900Z 17016KT 27/19 A2991 RMK A01 T02710191  RH  062%=      5-min Rain = 0
KOD1 180901Z 17015KT 27/19 A2991 RMK A01 T02720191  RH  061%=      5-min Rain = 0
KOD1 180902Z 17013KT 27/19 A2991 RMK A01 T02710191  RH  062%=      5-min Rain = 0
KOD1 180903Z 17015KT 27/19 A2991 RMK A01 T02710191  RH  062%=      5-min Rain = 0
KOD1 180904Z 17012KT 27/19 A2991 RMK A01 T02710191  RH  062%=      5-min Rain = 0
KOD1 180905Z 17013KT 27/19 A2991 RMK A01 T02700191  RH  062%=      5-min Rain = 0
KOD1 180906Z 16014KT 27/19 A2991 RMK A01 T02700191  RH  062%=      5-min Rain = 0
KOD1 180907Z 16013KT 27/19 A2991 RMK A01 T02700191  RH  062%=      5-min Rain = 0
KOD1 180908Z 16012KT 27/19 A2991 RMK A01 T02700191  RH  062%=      5-min Rain = 0
KOD1 180909Z 17014KT 27/19 A2991 RMK A01 T02690191  RH  062%=      5-min Rain = 0
KOD1 180910Z 16013KT 27/19 A2991 RMK A01 T02690191  RH  062%=      5-min Rain = 0
KOD1 180911Z 16013KT 27/19 A2991 RMK A01 T02690192  RH  062%=      5-min Rain = 0
KOD1 180912Z 16013KT 27/19 A2991 RMK A01 T02690192  RH  063%=      5-min Rain = 0
KOD1 180913Z 17014KT 27/19 A2991 RMK A01 T02690192  RH  063%=      5-min Rain = 0
KOD1 180914Z 16014KT 27/19 A2991 RMK A01 T02690192  RH  063%=      5-min Rain = 0
KOD1 180915Z 16012KT 27/19 A2991 RMK A01 T02680192  RH  063%=      5-min Rain = 0
KOD1 180916Z 17011KT 27/19 A2991 RMK A01 T02670192  RH  063%=      5-min Rain = 0
KOD1 180917Z 17011KT 27/19 A2991 RMK A01 T02670192  RH  063%=      5-min Rain = 0
KOD1 180918Z 17014KT 27/19 A2991 RMK A01 T02670192  RH  063%=      5-min Rain = 0
KOD1 180919Z 17013G18KT 27/19 A2991 RMK A01 T02680192  RH  063%=      5-min Rain = 0
KOD1 180920Z 17012KT 27/19 A2991 RMK A01 T02680192  RH  063%=      5-min Rain = 0
KOD1 180921Z 17012KT 27/19 A2991 RMK A01 T02680192  RH  063%=      5-min Rain = 0
KOD1 180922Z 17015KT 27/19 A2991 RMK A01 T02680192  RH  063%=      5-min Rain = 0
KOD1 180923Z 17014KT 27/19 A2991 RMK A01 T02690192  RH  063%=      5-min Rain = 0
KOD1 180924Z 17012G18KT 27/19 A2991 RMK A01 T02690192  RH  063%=      5-min Rain = 0
KOD1 180925Z 18016KT 27/19 A2991 RMK A01 T02680192  RH  063%=      5-min Rain = 0
KOD1 180926Z 17014KT 27/19 A2991 RMK A01 T02680192  RH  063%=      5-min Rain = 0
KOD1 180927Z 17014KT 27/19 A2991 RMK A01 T02680192  RH  063%=      5-min Rain = 0
KOD1 180928Z 17013KT 27/19 A2991 RMK A01 T02680192  RH  063%=      5-min Rain = 0
KOD1 180929Z 17013KT 27/19 A2991 RMK A01 T02670192  RH  063%=      5-min Rain = 0
KOD1 180930Z 17017G22KT 27/19 A2991 RMK A01 T02670192  RH  063%=      5-min Rain = 0
KOD1 180931Z 17016KT 27/19 A2991 RMK A01 T02680192  RH  063%=      5-min Rain = 0
KOD1 180932Z 17015KT 27/19 A2991 RMK A01 T02680192  RH  063%=      5-min Rain = 0
KOD1 180933Z 17012KT 27/19 A2991 RMK A01 T02680192  RH  063%=      5-min Rain = 0
KOD1 180934Z 17012KT 27/19 A2991 RMK A01 T02670192  RH  063%=      5-min Rain = 0
KOD1 180935Z 17016KT 27/19 A2991 RMK A01 T02670192  RH  063%=      5-min Rain = 0
KOD1 180936Z 17015KT 27/19 A2991 RMK A01 T02670192  RH  063%=      5-min Rain = 0
KOD1 180937Z 17014KT 27/19 A2991 RMK A01 T02670192  RH  063%=      5-min Rain = 0
KOD1 180938Z 17016KT 27/19 A2991 RMK A01 T02670192  RH  063%=      5-min Rain = 0
KOD1 180939Z 17011G17KT 27/19 A2991 RMK A01 T02670192  RH  063%=      5-min Rain = 0
KOD1 180940Z 17011KT 27/19 A2991 RMK A01 T02660192  RH  064%=      5-min Rain = 0
KOD1 180941Z 17011G16KT 27/19 A2991 RMK A01 T02650192  RH  064%=      5-min Rain = 0
KOD1 180942Z 17014KT 27/19 A2991 RMK A01 T02650192  RH  064%=      5-min Rain = 0
KOD1 180943Z 17013KT 27/19 A2991 RMK A01 T02660192  RH  064%=      5-min Rain = 0
KOD1 180944Z 17014KT 27/19 A2991 RMK A01 T02660192  RH  064%=      5-min Rain = 0
KOD1 180945Z 17013KT 27/19 A2991 RMK A01 T02650192  RH  064%=      5-min Rain = 0
KOD1 180946Z 17013KT 27/19 A2991 RMK A01 T02650192  RH  064%=      5-min Rain = 0
KOD1 180947Z 17014KT 27/19 A2991 RMK A01 T02650192  RH  064%=      5-min Rain = 0
KOD1 180948Z 17015KT 27/19 A2991 RMK A01 T02650192  RH  064%=      5-min Rain = 0
KOD1 180949Z 17012G17KT 27/19 A2991 RMK A01 T02650192  RH  064%=      5-min Rain = 0
KOD1 180950Z 17013KT 27/19 A2991 RMK A01 T02650192  RH  064%=      5-min Rain = 0
KOD1 180951Z 17013KT 27/19 A2991 RMK A01 T02650192  RH  064%=      5-min Rain = 0
KOD1 180952Z 17011G16KT 27/19 A2991 RMK A01 T02650192  RH  064%=      5-min Rain = 0
KOD1 180953Z 17010KT 26/19 A2991 RMK A01 T02640192  RH  065%=      5-min Rain = 0
KOD1 180954Z 17012KT 26/19 A2991 RMK A01 T02630192  RH  065%=      5-min Rain = 0
KOD1 180955Z 18011KT 26/19 A2991 RMK A01 T02630192  RH  065%=      5-min Rain = 0
KOD1 180956Z 18012KT 26/19 A2991 RMK A01 T02630192  RH  065%=      5-min Rain = 0
KOD1 180957Z 18012KT 26/19 A2991 RMK A01 T02630192  RH  065%=      5-min Rain = 0
KOD1 180958Z 18013KT 26/19 A2991 RMK A01 T02630192  RH  065%=      5-min Rain = 0
KOD1 180959Z 17014KT 26/19 A2991 RMK A01 T02630192  RH  065%=      5-min Rain = 0
KOD1 181000Z 17012KT 26/19 A2991 RMK A01 T02630192  RH  065%=      5-min Rain = 0
KOD1 181001Z 17011KT 26/19 A2991 RMK A01 T02630192  RH  065%=      5-min Rain = 0
KOD1 181002Z 17012KT 26/19 A2992 RMK A01 T02630192  RH  065%=      5-min Rain = 0
KOD1 181003Z 18013KT 26/19 A2992 RMK A01 T02620192  RH  065%=      5-min Rain = 0
KOD1 181004Z 17011KT 26/19 A2992 RMK A01 T02630192  RH  065%=      5-min Rain = 0
KOD1 181005Z 17012KT 26/19 A2992 RMK A01 T02630192  RH  065%=      5-min Rain = 0
KOD1 181006Z 18011KT 26/19 A2992 RMK A01 T02630193  RH  065%=      5-min Rain = 0
KOD1 181007Z 18011KT 26/19 A2992 RMK A01 T02630193  RH  065%=      5-min Rain = 0
KOD1 181008Z 17012KT 26/19 A2992 RMK A01 T02630193  RH  065%=      5-min Rain = 0
KOD1 181009Z 17013KT 26/19 A2992 RMK A01 T02620193  RH  066%=      5-min Rain = 0
KOD1 181010Z 18012KT 26/19 A2992 RMK A01 T02630193  RH  065%=      5-min Rain = 0
KOD1 181011Z 17012KT 26/19 A2992 RMK A01 T02630193  RH  065%=      5-min Rain = 0
KOD1 181012Z 17013KT 26/19 A2992 RMK A01 T02630193  RH  065%=      5-min Rain = 0
KOD1 181013Z 17010KT 26/19 A2992 RMK A01 T02620193  RH  066%=      5-min Rain = 0
KOD1 181014Z 17013KT 26/19 A2992 RMK A01 T02620193  RH  066%=      5-min Rain = 0
KOD1 181015Z 17013KT 26/19 A2992 RMK A01 T02620193  RH  066%=      5-min Rain = 0
KOD1 181016Z 17013KT 26/19 A2992 RMK A01 T02630193  RH  066%=      5-min Rain = 0
KOD1 181017Z 17013KT 26/19 A2992 RMK A01 T02630193  RH  065%=      5-min Rain = 0
KOD1 181018Z 17011KT 26/19 A2992 RMK A01 T02630193  RH  066%=      5-min Rain = 0
KOD1 181019Z 17010KT 26/19 A2992 RMK A01 T02620193  RH  066%=      5-min Rain = 0
KOD1 181020Z 17012KT 26/19 A2992 RMK A01 T02610193  RH  066%=      5-min Rain = 0
KOD1 181021Z 17012KT 26/19 A2992 RMK A01 T02620193  RH  066%=      5-min Rain = 0
KOD1 181022Z 17013KT 26/19 A2992 RMK A01 T02620194  RH  066%=      5-min Rain = 0
KOD1 181023Z 17011KT 26/19 A2992 RMK A01 T02620194  RH  066%=      5-min Rain = 0
KOD1 181024Z 17012KT 26/19 A2992 RMK A01 T02620194  RH  066%=      5-min Rain = 0
KOD1 181025Z 17011KT 26/19 A2992 RMK A01 T02620194  RH  066%=      5-min Rain = 0
KOD1 181026Z 17011KT 26/19 A2992 RMK A01 T02610194  RH  066%=      5-min Rain = 0
KOD1 181027Z 17013G18KT 26/19 A2992 RMK A01 T02610194  RH  066%=      5-min Rain = 0
KOD1 181028Z 17012KT 26/19 A2992 RMK A01 T02620194  RH  066%=      5-min Rain = 0
KOD1 181029Z 17011KT 26/19 A2992 RMK A01 T02620194  RH  066%=      5-min Rain = 0
KOD1 181030Z 17013KT 26/19 A2992 RMK A01 T02620194  RH  066%=      5-min Rain = 0
KOD1 181031Z 17011KT 26/19 A2992 RMK A01 T02620194  RH  066%=      5-min Rain = 0
KOD1 181032Z 17011KT 26/19 A2992 RMK A01 T02610194  RH  066%=      5-min Rain = 0
KOD1 181033Z 18013KT 26/19 A2992 RMK A01 T02610194  RH  066%=      5-min Rain = 0
KOD1 181034Z 18012KT 26/19 A2992 RMK A01 T02610194  RH  066%=      5-min Rain = 0
KOD1 181035Z 17012KT 26/19 A2992 RMK A01 T02610194  RH  067%=      5-min Rain = 0
KOD1 181036Z 17009KT 26/19 A2992 RMK A01 T02610194  RH  067%=      5-min Rain = 0
KOD1 181037Z 17011KT 26/19 A2992 RMK A01 T02600194  RH  067%=      5-min Rain = 0
KOD1 181038Z 17011KT 26/19 A2992 RMK A01 T02600194  RH  067%=      5-min Rain = 0
KOD1 181039Z 17012KT 26/19 A2992 RMK A01 T02590194  RH  067%=      5-min Rain = 0
KOD1 181040Z 17011KT 26/19 A2992 RMK A01 T02590194  RH  067%=      5-min Rain = 0
KOD1 181041Z 17011KT 26/19 A2992 RMK A01 T02590194  RH  067%=      5-min Rain = 0
KOD1 181042Z 17011KT 26/19 A2992 RMK A01 T02600194  RH  067%=      5-min Rain = 0
KOD1 181043Z 17011KT 26/19 A2992 RMK A01 T02600194  RH  067%=      5-min Rain = 0
KOD1 181044Z 17013KT 26/19 A2992 RMK A01 T02600194  RH  067%=      5-min Rain = 0
KOD1 181045Z 17011KT 26/20 A2992 RMK A01 T02610195  RH  067%=      5-min Rain = 0
KOD1 181046Z 17011KT 26/20 A2992 RMK A01 T02600195  RH  067%=      5-min Rain = 0
KOD1 181047Z 17012KT 26/20 A2992 RMK A01 T02600195  RH  067%=      5-min Rain = 0
KOD1 181048Z 17011KT 26/20 A2993 RMK A01 T02600195  RH  067%=      5-min Rain = 0
KOD1 181049Z 18011KT 26/20 A2993 RMK A01 T02600195  RH  067%=      5-min Rain = 0
KOD1 181050Z 18011KT 26/20 A2993 RMK A01 T02600195  RH  067%=      5-min Rain = 0
KOD1 181051Z 18010KT 26/20 A2993 RMK A01 T02590195  RH  068%=      5-min Rain = 0
KOD1 181052Z 17011KT 26/20 A2993 RMK A01 T02590195  RH  068%=      5-min Rain = 0
KOD1 181053Z 17012KT 26/19 A2993 RMK A01 T02590194  RH  068%=      5-min Rain = 0
KOD1 181054Z 18011KT 26/20 A2993 RMK A01 T02590195  RH  068%=      5-min Rain = 0
KOD1 181055Z 17012KT 26/20 A2993 RMK A01 T02590195  RH  068%=      5-min Rain = 0
KOD1 181056Z 17009KT 26/20 A2993 RMK A01 T02590195  RH  068%=      5-min Rain = 0
KOD1 181057Z 17010KT 26/20 A2993 RMK A01 T02590195  RH  068%=      5-min Rain = 0
KOD1 181058Z 18010KT 26/20 A2993 RMK A01 T02580195  RH  068%=      5-min Rain = 0
KOD1 181059Z 17011KT 26/20 A2993 RMK A01 T02570195  RH  068%=      5-min Rain = 0
KOD1 181100Z 18010KT 26/20 A2993 RMK A01 T02580195  RH  068%=      5-min Rain = 0
KOD1 181101Z 17011KT 26/20 A2993 RMK A01 T02580196  RH  068%=      5-min Rain = 0
KOD1 181102Z 17011KT 26/20 A2993 RMK A01 T02580196  RH  068%=      5-min Rain = 0
KOD1 181103Z 17011KT 26/20 A2993 RMK A01 T02590196  RH  068%=      5-min Rain = 0
KOD1 181104Z 17012KT 26/20 A2993 RMK A01 T02580196  RH  068%=      5-min Rain = 0
KOD1 181105Z 17010KT 26/20 A2993 RMK A01 T02580195  RH  068%=      5-min Rain = 0
KOD1 181106Z 17011KT 26/20 A2993 RMK A01 T02580196  RH  068%=      5-min Rain = 0
KOD1 181107Z 17009KT 26/20 A2993 RMK A01 T02580196  RH  068%=      5-min Rain = 0
KOD1 181108Z 17010KT 26/20 A2993 RMK A01 T02570196  RH  069%=      5-min Rain = 0
KOD1 181109Z 17011KT 26/20 A2993 RMK A01 T02570196  RH  069%=      5-min Rain = 0
KOD1 181110Z 17010KT 26/20 A2993 RMK A01 T02570196  RH  069%=      5-min Rain = 0
KOD1 181111Z 17013KT 26/20 A2993 RMK A01 T02570196  RH  069%=      5-min Rain = 0
KOD1 181112Z 17009KT 26/20 A2993 RMK A01 T02570196  RH  069%=      5-min Rain = 0
KOD1 181113Z 17011KT 26/20 A2993 RMK A01 T02570196  RH  069%=      5-min Rain = 0
KOD1 181114Z 17010KT 26/20 A2993 RMK A01 T02570196  RH  069%=      5-min Rain = 0
KOD1 181115Z 17012KT 26/20 A2993 RMK A01 T02570196  RH  069%=      5-min Rain = 0
KOD1 181116Z 17011KT 26/20 A2993 RMK A01 T02570196  RH  069%=      5-min Rain = 0
KOD1 181117Z 17010KT 26/20 A2993 RMK A01 T02570197  RH  069%=      5-min Rain = 0
KOD1 181118Z 17012KT 26/20 A2993 RMK A01 T02560196  RH  070%=      5-min Rain = 0
KOD1 181119Z 17010KT 26/20 A2993 RMK A01 T02570197  RH  069%=      5-min Rain = 0
KOD1 181120Z 17011KT 26/20 A2993 RMK A01 T02560197  RH  070%=      5-min Rain = 0
KOD1 181121Z 17011KT 26/20 A2993 RMK A01 T02560196  RH  070%=      5-min Rain = 0
KOD1 181122Z 17013KT 26/20 A2993 RMK A01 T02560197  RH  070%=      5-min Rain = 0
KOD1 181123Z 17010KT 26/20 A2993 RMK A01 T02560196  RH  070%=      5-min Rain = 0
KOD1 181124Z 17010KT 26/20 A2993 RMK A01 T02560197  RH  070%=      5-min Rain = 0
KOD1 181125Z 17010KT 26/20 A2993 RMK A01 T02550197  RH  070%=      5-min Rain = 0
KOD1 181126Z 17012KT 26/20 A2993 RMK A01 T02550197  RH  070%=      5-min Rain = 0
KOD1 181127Z 17011KT 26/20 A2993 RMK A01 T02560197  RH  070%=      5-min Rain = 0
KOD1 181128Z 17009KT 26/20 A2993 RMK A01 T02560197  RH  070%=      5-min Rain = 0
KOD1 181129Z 17011G16KT 26/20 A2993 RMK A01 T02550197  RH  070%=      5-min Rain = 0
KOD1 181130Z 17011KT 26/20 A2993 RMK A01 T02550197  RH  070%=      5-min Rain = 0
KOD1 181131Z 17011KT 26/20 A2993 RMK A01 T02550197  RH  070%=      5-min Rain = 0
KOD1 181132Z 17010KT 26/20 A2993 RMK A01 T02550197  RH  070%=      5-min Rain = 0
KOD1 181133Z 18010KT 26/20 A2993 RMK A01 T02550197  RH  070%=      5-min Rain = 0
KOD1 181134Z 17010KT 26/20 A2993 RMK A01 T02550197  RH  071%=      5-min Rain = 0
KOD1 181135Z 17012KT 26/20 A2993 RMK A01 T02550197  RH  070%=      5-min Rain = 0
KOD1 181136Z 17014KT 26/20 A2993 RMK A01 T02550197  RH  070%=      5-min Rain = 0
KOD1 181137Z 17013KT 26/20 A2993 RMK A01 T02560197  RH  070%=      5-min Rain = 0
KOD1 181138Z 18012KT 26/20 A2993 RMK A01 T02560197  RH  070%=      5-min Rain = 0
KOD1 181139Z 17012KT 26/20 A2993 RMK A01 T02560197  RH  070%=      5-min Rain = 0
KOD1 181140Z 17013KT 26/20 A2993 RMK A01 T02560198  RH  070%=      5-min Rain = 0
KOD1 181141Z 17011KT 26/20 A2993 RMK A01 T02560198  RH  070%=      5-min Rain = 0
KOD1 181142Z 17011KT 26/20 A2993 RMK A01 T02560198  RH  070%=      5-min Rain = 0
KOD1 181143Z 17011KT 26/20 A2993 RMK A01 T02550198  RH  070%=      5-min Rain = 0
KOD1 181144Z 17012KT 26/20 A2993 RMK A01 T02550198  RH  070%=      5-min Rain = 0
KOD1 181145Z 18011KT 26/20 A2993 RMK A01 T02550198  RH  070%=      5-min Rain = 0
KOD1 181146Z 17011KT 26/20 A2993 RMK A01 T02550198  RH  071%=      5-min Rain = 0
KOD1 181147Z 17012KT 26/20 A2993 RMK A01 T02550198  RH  071%=      5-min Rain = 0
KOD1 181148Z 17012KT 26/20 A2993 RMK A01 T02550198  RH  071%=      5-min Rain = 0
KOD1 181149Z 17012KT 26/20 A2993 RMK A01 T02550198  RH  071%=      5-min Rain = 0
KOD1 181150Z 17011G16KT 26/20 A2993 RMK A01 T02560198  RH  070%=      5-min Rain = 0
KOD1 181151Z 17011KT 26/20 A2993 RMK A01 T02550198  RH  070%=      5-min Rain = 0
KOD1 181152Z 17012KT 26/20 A2993 RMK A01 T02550198  RH  071%=      5-min Rain = 0
KOD1 181153Z 17014KT 26/20 A2993 RMK A01 T02560198  RH  071%=      5-min Rain = 0
KOD1 181154Z 17011KT 26/20 A2994 RMK A01 T02560198  RH  070%=      5-min Rain = 0
KOD1 181155Z 18010KT 26/20 A2994 RMK A01 T02560198  RH  070%=      5-min Rain = 0
KOD1 181156Z 17012KT 26/20 A2994 RMK A01 T02560198  RH  071%=      5-min Rain = 0
KOD1 181157Z 18011KT 26/20 A2994 RMK A01 T02550198  RH  071%=      5-min Rain = 0
KOD1 181158Z 17012KT 26/20 A2994 RMK A01 T02550199  RH  071%=      5-min Rain = 0
KOD1 181159Z 17011KT 26/20 A2993 RMK A01 T02560199  RH  071%=      5-min Rain = 0
KOD1 181200Z 17012KT 26/20 A2994 RMK A01 T02560199  RH  071%=      5-min Rain = 0
KOD1 181201Z 18012KT 26/20 A2994 RMK A01 T02560199  RH  071%=      5-min Rain = 0
KOD1 181202Z 18011KT 26/20 A2994 RMK A01 T02560199  RH  071%=      5-min Rain = 0
KOD1 181203Z 18011KT 26/20 A2994 RMK A01 T02560199  RH  071%=      5-min Rain = 0
KOD1 181204Z 17013KT 26/20 A2994 RMK A01 T02560199  RH  071%=      5-min Rain = 0
KOD1 181205Z 17012KT 26/20 A2994 RMK A01 T02560199  RH  071%=      5-min Rain = 0
KOD1 181206Z 17012G17KT 26/20 A2994 RMK A01 T02570199  RH  071%=      5-min Rain = 0
KOD1 181207Z 18011KT 26/20 A2994 RMK A01 T02560199  RH  071%=      5-min Rain = 0
KOD1 181208Z 18012KT 26/20 A2994 RMK A01 T02570199  RH  071%=      5-min Rain = 0
KOD1 181209Z 18012KT 26/20 A2994 RMK A01 T02570199  RH  070%=      5-min Rain = 0
KOD1 181210Z 17013KT 26/20 A2994 RMK A01 T02570199  RH  071%=      5-min Rain = 0
KOD1 181211Z 17011KT 26/20 A2994 RMK A01 T02570199  RH  071%=      5-min Rain = 0
KOD1 181212Z 17012KT 26/20 A2994 RMK A01 T02570200  RH  071%=      5-min Rain = 0
KOD1 181213Z 18012KT 26/20 A2994 RMK A01 T02570200  RH  071%=      5-min Rain = 0
KOD1 181214Z 17014KT 26/20 A2994 RMK A01 T02570200  RH  071%=      5-min Rain = 0
KOD1 181215Z 17014KT 26/20 A2993 RMK A01 T02570200  RH  070%=      5-min Rain = 0
KOD1 181216Z 17012KT 26/20 A2993 RMK A01 T02570200  RH  070%=      5-min Rain = 0
KOD1 181217Z 17012KT 26/20 A2993 RMK A01 T02570200  RH  071%=      5-min Rain = 0
KOD1 181218Z 17011KT 26/20 A2993 RMK A01 T02570200  RH  071%=      5-min Rain = 0
KOD1 181219Z 17012KT 26/20 A2993 RMK A01 T02570200  RH  071%=      5-min Rain = 0
KOD1 181220Z 17011KT 26/20 A2993 RMK A01 T02580201  RH  071%=      5-min Rain = 0
KOD1 181221Z 18012KT 26/20 A2993 RMK A01 T02580201  RH  071%=      5-min Rain = 0
KOD1 181222Z 17012KT 26/20 A2994 RMK A01 T02580201  RH  071%=      5-min Rain = 0
KOD1 181223Z 18011KT 26/20 A2994 RMK A01 T02580200  RH  070%=      5-min Rain = 0
KOD1 181224Z 18012KT 26/20 A2994 RMK A01 T02590201  RH  070%=      5-min Rain = 0
KOD1 181225Z 17013KT 26/20 A2994 RMK A01 T02590201  RH  070%=      5-min Rain = 0
KOD1 181226Z 18011KT 26/20 A2994 RMK A01 T02590201  RH  070%=      5-min Rain = 0
KOD1 181227Z 18011KT 26/20 A2994 RMK A01 T02590201  RH  070%=      5-min Rain = 0
KOD1 181228Z 18011KT 26/20 A2994 RMK A01 T02590201  RH  070%=      5-min Rain = 0
KOD1 181229Z 18011KT 26/20 A2994 RMK A01 T02590201  RH  070%=      5-min Rain = 0
KOD1 181230Z 18011KT 26/20 A2994 RMK A01 T02590201  RH  070%=      5-min Rain = 0
KOD1 181231Z 18012KT 26/20 A2994 RMK A01 T02590201  RH  070%=      5-min Rain = 0
KOD1 181232Z 18012KT 26/20 A2994 RMK A01 T02600202  RH  070%=      5-min Rain = 0
KOD1 181233Z 17011KT 26/20 A2994 RMK A01 T02600202  RH  070%=      5-min Rain = 0
KOD1 181234Z 17011KT 26/20 A2994 RMK A01 T02600202  RH  070%=      5-min Rain = 0
KOD1 181235Z 17011KT 26/20 A2994 RMK A01 T02600202  RH  070%=      5-min Rain = 0
KOD1 181236Z 18012KT 26/20 A2994 RMK A01 T02600202  RH  070%=      5-min Rain = 0
KOD1 181237Z 17010KT 26/20 A2994 RMK A01 T02610202  RH  070%=      5-min Rain = 0
KOD1 181238Z 18013KT 26/20 A2994 RMK A01 T02610202  RH  070%=      5-min Rain = 0
KOD1 181239Z 18011KT 26/20 A2994 RMK A01 T02610202  RH  070%=      5-min Rain = 0
KOD1 181240Z 18012KT 26/20 A2994 RMK A01 T02610202  RH  070%=      5-min Rain = 0
KOD1 181241Z 17011KT 26/20 A2994 RMK A01 T02610202  RH  070%=      5-min Rain = 0
KOD1 181242Z 17011KT 26/20 A2994 RMK A01 T02610202  RH  070%=      5-min Rain = 0
KOD1 181243Z 17010KT 26/20 A2994 RMK A01 T02620202  RH  070%=      5-min Rain = 0
KOD1 181244Z 17011KT 26/20 A2994 RMK A01 T02620203  RH  070%=      5-min Rain = 0
KOD1 181245Z 18012KT 26/20 A2994 RMK A01 T02620203  RH  070%=      5-min Rain = 0
KOD1 181246Z 17011KT 26/20 A2994 RMK A01 T02620202  RH  070%=      5-min Rain = 0
KOD1 181247Z 17014KT 26/20 A2994 RMK A01 T02630203  RH  070%=      5-min Rain = 0
KOD1 181248Z 17012KT 26/20 A2994 RMK A01 T02630203  RH  070%=      5-min Rain = 0
KOD1 181249Z 17013G18KT 26/20 A2994 RMK A01 T02630203  RH  070%=      5-min Rain = 0
KOD1 181250Z 17012KT 26/20 A2994 RMK A01 T02630202  RH  069%=      5-min Rain = 0
KOD1 181251Z 17012KT 26/20 A2994 RMK A01 T02630202  RH  069%=      5-min Rain = 0
KOD1 181252Z 17014KT 26/20 A2994 RMK A01 T02630202  RH  069%=      5-min Rain = 0
KOD1 181253Z 17013KT 26/20 A2994 RMK A01 T02630202  RH  069%=      5-min Rain = 0
KOD1 181254Z 17011KT 26/20 A2994 RMK A01 T02640203  RH  069%=      5-min Rain = 0
KOD1 181255Z 18009KT 26/20 A2994 RMK A01 T02640204  RH  069%=      5-min Rain = 0
KOD1 181256Z 17010KT 26/20 A2994 RMK A01 T02640204  RH  069%=      5-min Rain = 0
KOD1 181257Z 18012KT 27/20 A2994 RMK A01 T02650203  RH  069%=      5-min Rain = 0
KOD1 181258Z 17011KT 27/20 A2994 RMK A01 T02650204  RH  069%=      5-min Rain = 0
KOD1 181259Z 17010KT 27/20 A2994 RMK A01 T02650204  RH  069%=      5-min Rain = 0
KOD1 181300Z 17010G15KT 27/20 A2994 RMK A01 T02650204  RH  069%=      5-min Rain = 0
KOD1 181301Z 17012KT 27/20 A2994 RMK A01 T02650204  RH  069%=      5-min Rain = 0
KOD1 181302Z 17012KT 27/20 A2994 RMK A01 T02650203  RH  069%=      5-min Rain = 0
KOD1 181303Z 17012KT 27/20 A2994 RMK A01 T02660204  RH  069%=      5-min Rain = 0
KOD1 181304Z 17013KT 27/20 A2994 RMK A01 T02660204  RH  069%=      5-min Rain = 0
KOD1 181305Z 17014KT 27/20 A2994 RMK A01 T02660204  RH  069%=      5-min Rain = 0
KOD1 181306Z 17012KT 27/20 A2994 RMK A01 T02670204  RH  069%=      5-min Rain = 0
KOD1 181307Z 18011KT 27/20 A2994 RMK A01 T02670204  RH  069%=      5-min Rain = 0
KOD1 181308Z 17010KT 27/21 A2994 RMK A01 T02670205  RH  069%=      5-min Rain = 0
KOD1 181309Z 17013KT 27/21 A2994 RMK A01 T02680205  RH  068%=      5-min Rain = 0
KOD1 181310Z 18014KT 27/21 A2994 RMK A01 T02680205  RH  068%=      5-min Rain = 0
KOD1 181311Z 18015KT 27/21 A2994 RMK A01 T02680205  RH  068%=      5-min Rain = 0
KOD1 181312Z 17013KT 27/20 A2994 RMK A01 T02670204  RH  068%=      5-min Rain = 0
KOD1 181313Z 16012KT 27/21 A2994 RMK A01 T02680205  RH  068%=      5-min Rain = 0
KOD1 181314Z 17011KT 27/21 A2994 RMK A01 T02680205  RH  068%=      5-min Rain = 0
KOD1 181315Z 17012KT 27/21 A2994 RMK A01 T02690205  RH  068%=      5-min Rain = 0
KOD1 181316Z 17014KT 27/21 A2994 RMK A01 T02690205  RH  068%=      5-min Rain = 0
KOD1 181317Z 17012KT 27/21 A2994 RMK A01 T02690205  RH  068%=      5-min Rain = 0
KOD1 181318Z 18014KT 27/21 A2994 RMK A01 T02690205  RH  068%=      5-min Rain = 0
KOD1 181319Z 16012KT 27/21 A2994 RMK A01 T02690206  RH  068%=      5-min Rain = 0
KOD1 181320Z 17013KT 27/21 A2994 RMK A01 T02700206  RH  068%=      5-min Rain = 0
KOD1 181321Z 17013KT 27/21 A2994 RMK A01 T02710206  RH  068%=      5-min Rain = 0
KOD1 181322Z 17011KT 27/21 A2994 RMK A01 T02710206  RH  068%=      5-min Rain = 0
KOD1 181323Z 17014KT 27/21 A2994 RMK A01 T02710206  RH  067%=      5-min Rain = 0
KOD1 181324Z 18013KT 27/21 A2994 RMK A01 T02710206  RH  068%=      5-min Rain = 0
KOD1 181325Z 18013G18KT 27/21 A2994 RMK A01 T02710206  RH  068%=      5-min Rain = 0
KOD1 181326Z 17015KT 27/21 A2994 RMK A01 T02710206  RH  067%=      5-min Rain = 0
KOD1 181327Z 17015KT 27/21 A2994 RMK A01 T02720206  RH  067%=      5-min Rain = 0
KOD1 181328Z 18015KT 27/21 A2994 RMK A01 T02720206  RH  067%=      5-min Rain = 0
KOD1 181329Z 17017KT 27/21 A2994 RMK A01 T02720206  RH  067%=      5-min Rain = 0
KOD1 181330Z 17015KT 27/21 A2994 RMK A01 T02710205  RH  067%=      5-min Rain = 0
KOD1 181331Z 17011KT 27/21 A2994 RMK A01 T02720207  RH  068%=      5-min Rain = 0
KOD1 181332Z 17015KT 27/21 A2994 RMK A01 T02740207  RH  067%=      5-min Rain = 0
KOD1 181333Z 18017KT 27/21 A2994 RMK A01 T02730206  RH  067%=      5-min Rain = 0
KOD1 181334Z 17014KT 27/21 A2994 RMK A01 T02730207  RH  067%=      5-min Rain = 0
KOD1 181335Z 17014KT 27/21 A2994 RMK A01 T02740207  RH  067%=      5-min Rain = 0
KOD1 181336Z 17017KT 27/21 A2994 RMK A01 T02740207  RH  067%=      5-min Rain = 0
KOD1 181337Z 18013KT 27/21 A2994 RMK A01 T02740207  RH  067%=      5-min Rain = 0
KOD1 181338Z 18013G18KT 28/21 A2994 RMK A01 T02750208  RH  067%=      5-min Rain = 0
KOD1 181339Z 18017KT 28/21 A2993 RMK A01 T02750207  RH  066%=      5-min Rain = 0
KOD1 181340Z 17019KT 28/21 A2993 RMK A01 T02750207  RH  066%=      5-min Rain = 0
KOD1 181341Z 18016KT 28/21 A2993 RMK A01 T02750207  RH  067%=      5-min Rain = 0
KOD1 181342Z 18016KT 28/21 A2993 RMK A01 T02750207  RH  066%=      5-min Rain = 0
KOD1 181343Z 18016G21KT 28/21 A2993 RMK A01 T02760208  RH  066%=      5-min Rain = 0
KOD1 181344Z 17018KT 28/21 A2993 RMK A01 T02770208  RH  066%=      5-min Rain = 0
KOD1 181345Z 17019KT 28/21 A2993 RMK A01 T02770207  RH  066%=      5-min Rain = 0
KOD1 181346Z 18016G21KT 28/21 A2994 RMK A01 T02760208  RH  066%=      5-min Rain = 0
KOD1 181347Z 18014KT 28/21 A2994 RMK A01 T02770208  RH  066%=      5-min Rain = 0
KOD1 181348Z 18014KT 28/21 A2994 RMK A01 T02780209  RH  066%=      5-min Rain = 0
KOD1 181349Z 18016KT 28/21 A2994 RMK A01 T02790209  RH  066%=      5-min Rain = 0
KOD1 181350Z 18017G22KT 28/21 A2994 RMK A01 T02790209  RH  065%=      5-min Rain = 0
KOD1 181351Z 18018KT 28/21 A2994 RMK A01 T02780208  RH  066%=      5-min Rain = 0
KOD1 181352Z 18017KT 28/21 A2994 RMK A01 T02790209  RH  066%=      5-min Rain = 0
KOD1 181353Z 18016KT 28/21 A2994 RMK A01 T02790209  RH  066%=      5-min Rain = 0
KOD1 181354Z 19012G17KT 28/21 A2994 RMK A01 T02800211  RH  066%=      5-min Rain = 0
KOD1 181355Z 18016KT 28/21 A2994 RMK A01 T02810210  RH  065%=      5-min Rain = 0
KOD1 181356Z 18019G25KT 28/21 A2994 RMK A01 T02810210  RH  065%=      5-min Rain = 0
KOD1 181357Z 18018KT 28/21 A2993 RMK A01 T02800209  RH  065%=      5-min Rain = 0
KOD1 181358Z 18017KT 28/21 A2994 RMK A01 T02800209  RH  065%=      5-min Rain = 0
KOD1 181359Z 18013KT 28/21 A2994 RMK A01 T02820211  RH  065%=      5-min Rain = 0
KOD1 181400Z 18016G23KT 28/21 A2994 RMK A01 T02840212  RH  065%=      5-min Rain = 0
KOD1 181401Z 19018KT 28/21 A2994 RMK A01 T02840211  RH  064%=      5-min Rain = 0
KOD1 181402Z 18019KT 28/21 A2994 RMK A01 T02830209  RH  064%=      5-min Rain = 0
KOD1 181403Z 19015KT 28/21 A2994 RMK A01 T02820210  RH  065%=      5-min Rain = 0
KOD1 181404Z 19013KT 28/21 A2994 RMK A01 T02830212  RH  065%=      5-min Rain = 0
KOD1 181405Z 19014KT 29/21 A2994 RMK A01 T02850212  RH  065%=      5-min Rain = 0
KOD1 181406Z 19013G18KT 29/21 A2994 RMK A01 T02850212  RH  064%=      5-min Rain = 0
KOD1 181407Z 19013G18KT 29/21 A2994 RMK A01 T02860212  RH  064%=      5-min Rain = 0
KOD1 181408Z 19011G18KT 29/21 A2994 RMK A01 T02870213  RH  064%=      5-min Rain = 0
KOD1 181409Z 20017KT 29/21 A2994 RMK A01 T02870211  RH  064%=      5-min Rain = 0
KOD1 181410Z 20017KT 29/21 A2994 RMK A01 T02860212  RH  064%=      5-min Rain = 0
KOD1 181411Z 20016KT 29/21 A2994 RMK A01 T02860211  RH  064%=      5-min Rain = 0
KOD1 181412Z 20014KT 29/21 A2994 RMK A01 T02850211  RH  064%=      5-min Rain = 0
KOD1 181413Z 19015KT 29/21 A2994 RMK A01 T02870212  RH  064%=      5-min Rain = 0
KOD1 181414Z 19016KT 29/21 A2994 RMK A01 T02870212  RH  064%=      5-min Rain = 0
KOD1 181415Z 19015G20KT 29/21 A2994 RMK A01 T02890213  RH  064%=      5-min Rain = 0
KOD1 181416Z 19016KT 29/21 A2994 RMK A01 T02890212  RH  063%=      5-min Rain = 0
KOD1 181417Z 20018KT 29/21 A2994 RMK A01 T02880212  RH  063%=      5-min Rain = 0
KOD1 181418Z 19018KT 29/21 A2994 RMK A01 T02880212  RH  063%=      5-min Rain = 0
KOD1 181419Z 18014KT 29/21 A2994 RMK A01 T02890212  RH  063%=      5-min Rain = 0
KOD1 181420Z 18013KT 29/21 A2994 RMK A01 T02910214  RH  063%=      5-min Rain = 0
KOD1 181421Z 19014KT 29/21 A2994 RMK A01 T02920214  RH  063%=      5-min Rain = 0
KOD1 181422Z 19014G20KT 29/21 A2994 RMK A01 T02920214  RH  063%=      5-min Rain = 0
KOD1 181423Z 18019G25KT 29/21 A2994 RMK A01 T02920213  RH  062%=      5-min Rain = 0
KOD1 181424Z 19019G24KT 29/21 A2994 RMK A01 T02920212  RH  062%=      5-min Rain = 0
KOD1 181425Z 19019G24KT 29/21 A2994 RMK A01 T02920212  RH  062%=      5-min Rain = 0
KOD1 181426Z 20020KT 29/21 A2994 RMK A01 T02910211  RH  062%=      5-min Rain = 0
KOD1 181427Z 19014G19KT 29/21 A2994 RMK A01 T02920212  RH  062%=      5-min Rain = 0
KOD1 181428Z 19020KT 29/21 A2993 RMK A01 T02930212  RH  062%=      5-min Rain = 0
KOD1 181429Z 19017KT 29/21 A2993 RMK A01 T02920211  RH  062%=      5-min Rain = 0
KOD1 181430Z 19015KT 29/21 A2993 RMK A01 T02920213  RH  062%=      5-min Rain = 0
KOD1 181431Z 19018G23KT 29/21 A2993 RMK A01 T02940214  RH  062%=      5-min Rain = 0
KOD1 181432Z 18019KT 29/21 A2993 RMK A01 T02940212  RH  062%=      5-min Rain = 0
KOD1 181433Z 19017KT 29/21 A2993 RMK A01 T02940213  RH  062%=      5-min Rain = 0
KOD1 181434Z 20018G23KT 30/21 A2993 RMK A01 T02950213  RH  061%=      5-min Rain = 0
KOD1 181435Z 19019G24KT 30/21 A2993 RMK A01 T02950213  RH  061%=      5-min Rain = 0
KOD1 181436Z 19020KT 29/21 A2993 RMK A01 T02940212  RH  061%=      5-min Rain = 0
KOD1 181437Z 20023KT 29/21 A2993 RMK A01 T02930211  RH  061%=      5-min Rain = 0
KOD1 181438Z 19018KT 29/21 A2993 RMK A01 T02930212  RH  062%=      5-min Rain = 0
KOD1 181439Z 20017KT 29/21 A2993 RMK A01 T02930212  RH  062%=      5-min Rain = 0
KOD1 181440Z 19013KT 30/21 A2993 RMK A01 T02950214  RH  062%=      5-min Rain = 0
KOD1 181441Z 20017KT 30/21 A2993 RMK A01 T02970214  RH  061%=      5-min Rain = 0
KOD1 181442Z 20018KT 30/21 A2993 RMK A01 T02970213  RH  061%=      5-min Rain = 0
KOD1 181443Z 19020G28KT 30/21 A2993 RMK A01 T02960213  RH  061%=      5-min Rain = 0
KOD1 181444Z 19018G23KT 30/21 A2993 RMK A01 T02970212  RH  060%=      5-min Rain = 0
KOD1 181445Z 19017KT 30/21 A2993 RMK A01 T02970213  RH  061%=      5-min Rain = 0
KOD1 181446Z 19016G22KT 30/21 A2993 RMK A01 T02970214  RH  061%=      5-min Rain = 0
KOD1 181447Z 18014KT 30/22 A2993 RMK A01 T03000215  RH  061%=      5-min Rain = 0
KOD1 181448Z 19014KT 30/22 A2993 RMK A01 T03010215  RH  060%=      5-min Rain = 0
KOD1 181449Z 19016G24KT 30/22 A2993 RMK A01 T03020215  RH  060%=      5-min Rain = 0
KOD1 181450Z 19021KT 30/21 A2993 RMK A01 T03010213  RH  059%=      5-min Rain = 0
KOD1 181451Z 20018G23KT 30/21 A2993 RMK A01 T02990213  RH  060%=      5-min Rain = 0
KOD1 181452Z 20016KT 30/21 A2993 RMK A01 T03000213  RH  060%=      5-min Rain = 0
KOD1 181453Z 18017G22KT 30/21 A2993 RMK A01 T03010213  RH  060%=      5-min Rain = 0
KOD1 181454Z 18019KT 30/21 A2993 RMK A01 T03000213  RH  060%=      5-min Rain = 0
KOD1 181455Z 19014KT 30/21 A2993 RMK A01 T03000214  RH  060%=      5-min Rain = 0
KOD1 181456Z 18016G21KT 30/22 A2993 RMK A01 T03030216  RH  060%=      5-min Rain = 0
KOD1 181457Z 19018G24KT 31/22 A2993 RMK A01 T03050216  RH  059%=      5-min Rain = 0
KOD1 181458Z 19017KT 30/22 A2993 RMK A01 T03040215  RH  059%=      5-min Rain = 0
KOD1 181459Z 19015KT 30/22 A2993 RMK A01 T03040215  RH  059%=      5-min Rain = 0
KOD1 181500Z 19016KT 30/22 A2993 RMK A01 T03040215  RH  059%=      5-min Rain = 0
KOD1 181501Z 20015KT 30/22 A2993 RMK A01 T03040216  RH  059%=      5-min Rain = 0
KOD1 181502Z 20014KT 31/22 A2993 RMK A01 T03050216  RH  059%=      5-min Rain = 0
KOD1 181503Z 20016G25KT 31/22 A2993 RMK A01 T03070216  RH  059%=      5-min Rain = 0
KOD1 181504Z 19019G25KT 30/21 A2993 RMK A01 T03040214  RH  058%=      5-min Rain = 0
KOD1 181505Z 19020KT 30/21 A2993 RMK A01 T03030214  RH  059%=      5-min Rain = 0
KOD1 181506Z 19019KT 30/21 A2993 RMK A01 T03030214  RH  059%=      5-min Rain = 0
KOD1 181507Z 19018KT 30/21 A2993 RMK A01 T03020214  RH  059%=      5-min Rain = 0
KOD1 181508Z 19017KT 30/22 A2993 RMK A01 T03030215  RH  059%=      5-min Rain = 0
KOD1 181509Z 19020KT 30/22 A2992 RMK A01 T03040215  RH  059%=      5-min Rain = 0
KOD1 181510Z 19018KT 30/22 A2993 RMK A01 T03040215  RH  059%=      5-min Rain = 0
KOD1 181511Z 19014KT 30/22 A2993 RMK A01 T03040215  RH  059%=      5-min Rain = 0
KOD1 181512Z 19016G22KT 31/22 A2993 RMK A01 T03060215  RH  059%=      5-min Rain = 0
KOD1 181513Z 18019KT 31/22 A2992 RMK A01 T03060215  RH  058%=      5-min Rain = 0
KOD1 181514Z 18020KT 30/21 A2992 RMK A01 T03040214  RH  058%=      5-min Rain = 0
KOD1 181515Z 18019G24KT 31/22 A2992 RMK A01 T03050215  RH  059%=      5-min Rain = 0
KOD1 181516Z 19014KT 31/22 A2992 RMK A01 T03050216  RH  059%=      5-min Rain = 0
KOD1 181517Z 19014KT 31/22 A2992 RMK A01 T03090218  RH  058%=      5-min Rain = 0
KOD1 181518Z 19016KT 31/22 A2992 RMK A01 T03110217  RH  057%=      5-min Rain = 0
KOD1 181519Z 18017KT 31/22 A2992 RMK A01 T03110215  RH  057%=      5-min Rain = 0
KOD1 181520Z 18019G24KT 31/22 A2992 RMK A01 T03100215  RH  057%=      5-min Rain = 0
KOD1 181521Z 18023KT 31/21 A2992 RMK A01 T03090214  RH  057%=      5-min Rain = 0
KOD1 181522Z 19016KT 31/22 A2992 RMK A01 T03090216  RH  058%=      5-min Rain = 0
KOD1 181523Z 19016KT 31/22 A2992 RMK A01 T03100216  RH  058%=      5-min Rain = 0
KOD1 181524Z 18016G22KT 31/22 A2992 RMK A01 T03110217  RH  057%=      5-min Rain = 0
KOD1 181525Z 18020G25KT 31/21 A2992 RMK A01 T03090213  RH  057%=      5-min Rain = 0
KOD1 181526Z 18015KT 31/21 A2992 RMK A01 T03060214  RH  058%=      5-min Rain = 0
KOD1 181527Z 20013G18KT 31/22 A2992 RMK A01 T03090218  RH  058%=      5-min Rain = 0
KOD1 181528Z 19020KT 31/22 A2992 RMK A01 T03120215  RH  057%=      5-min Rain = 0
KOD1 181529Z 19018G23KT 31/22 A2992 RMK A01 T03100215  RH  057%=      5-min Rain = 0
KOD1 181530Z 20021KT 31/21 A2992 RMK A01 T03110214  RH  056%=      5-min Rain = 0
KOD1 181531Z 19019G24KT 31/21 A2992 RMK A01 T03100214  RH  057%=      5-min Rain = 0
KOD1 181532Z 19019KT 31/21 A2992 RMK A01 T03090213  RH  057%=      5-min Rain = 0
KOD1 181533Z 19019G24KT 31/21 A2992 RMK A01 T03090213  RH  057%=      5-min Rain = 0
KOD1 181534Z 19020KT 31/21 A2992 RMK A01 T03090214  RH  057%=      5-min Rain = 0
KOD1 181535Z 19019G24KT 31/21 A2992 RMK A01 T03090214  RH  057%=      5-min Rain = 0
KOD1 181536Z 19019G24KT 31/21 A2992 RMK A01 T03100214  RH  057%=      5-min Rain = 0
KOD1 181537Z 19018KT 31/21 A2992 RMK A01 T03100214  RH  057%=      5-min Rain = 0
KOD1 181538Z 19019KT 31/21 A2992 RMK A01 T03100214  RH  056%=      5-min Rain = 0
KOD1 181539Z 20017G22KT 31/21 A2992 RMK A01 T03110214  RH  056%=      5-min Rain = 0
KOD1 181540Z 19016KT 31/22 A2992 RMK A01 T03120215  RH  056%=      5-min Rain = 0
KOD1 181541Z 19017KT 31/22 A2992 RMK A01 T03130216  RH  056%=      5-min Rain = 0
KOD1 181542Z 19015G20KT 31/22 A2992 RMK A01 T03140215  RH  056%=      5-min Rain = 0
KOD1 181543Z 19013G18KT 31/22 A2992 RMK A01 T03140216  RH  056%=      5-min Rain = 0
KOD1 181544Z 19015KT 32/22 A2992 RMK A01 T03160216  RH  055%=      5-min Rain = 0
KOD1 181545Z 19016G21KT 32/22 A2992 RMK A01 T03170216  RH  055%=      5-min Rain = 0
KOD1 181546Z 19013KT 32/22 A2992 RMK A01 T03170217  RH  055%=      5-min Rain = 0
KOD1 181547Z 20018G23KT 32/22 A2992 RMK A01 T03170215  RH  055%=      5-min Rain = 0
KOD1 181548Z 20016KT 32/21 A2992 RMK A01 T03150214  RH  055%=      5-min Rain = 0
KOD1 181549Z 21015KT 32/22 A2992 RMK A01 T03150216  RH  056%=      5-min Rain = 0
KOD1 181550Z 18014KT 32/22 A2992 RMK A01 T03170217  RH  056%=      5-min Rain = 0
KOD1 181551Z 19016KT 32/22 A2992 RMK A01 T03190218  RH  055%=      5-min Rain = 0
KOD1 181552Z 19016KT 32/22 A2992 RMK A01 T03200216  RH  054%=      5-min Rain = 0
KOD1 181553Z 19016KT 32/22 A2992 RMK A01 T03190216  RH  054%=      5-min Rain = 0
KOD1 181554Z 18015G20KT 32/22 A2992 RMK A01 T03190216  RH  055%=      5-min Rain = 0
KOD1 181555Z 18017KT 32/22 A2992 RMK A01 T03180215  RH  055%=      5-min Rain = 0
KOD1 181556Z 18014G19KT 32/22 A2992 RMK A01 T03170216  RH  055%=      5-min Rain = 0
KOD1 181557Z 18016KT 32/22 A2992 RMK A01 T03190217  RH  055%=      5-min Rain = 0
KOD1 181558Z 19016KT 32/22 A2992 RMK A01 T03200218  RH  055%=      5-min Rain = 0
KOD1 181559Z 19015G21KT 32/22 A2992 RMK A01 T03210218  RH  054%=      5-min Rain = 0
KOD1 181600Z 19019KT 32/22 A2992 RMK A01 T03190216  RH  054%=      5-min Rain = 0
KOD1 181601Z 18017G22KT 32/22 A2992 RMK A01 T03180215  RH  055%=      5-min Rain = 0
KOD1 181602Z 19016KT 32/22 A2992 RMK A01 T03180216  RH  055%=      5-min Rain = 0
KOD1 181603Z 18015KT 32/22 A2991 RMK A01 T03180215  RH  054%=      5-min Rain = 0
KOD1 181604Z 20011KT 32/22 A2991 RMK A01 T03190217  RH  055%=      5-min Rain = 0
KOD1 181605Z 20011G16KT 32/22 A2991 RMK A01 T03230220  RH  055%=      5-min Rain = 0
KOD1 181606Z 20012G17KT 33/22 A2991 RMK A01 T03270220  RH  053%=      5-min Rain = 0
KOD1 181607Z 20015KT 33/22 A2991 RMK A01 T03270218  RH  053%=      5-min Rain = 0
KOD1 181608Z 19015KT 33/22 A2991 RMK A01 T03250216  RH  053%=      5-min Rain = 0
KOD1 181609Z 19015G20KT 32/22 A2991 RMK A01 T03230216  RH  053%=      5-min Rain = 0
KOD1 181610Z 19017G22KT 32/22 A2991 RMK A01 T03210215  RH  053%=      5-min Rain = 0
KOD1 181611Z 18017KT 32/21 A2991 RMK A01 T03190214  RH  054%=      5-min Rain = 0
KOD1 181612Z 18016KT 32/22 A2991 RMK A01 T03190216  RH  055%=      5-min Rain = 0
KOD1 181613Z 19014KT 32/22 A2991 RMK A01 T03210219  RH  055%=      5-min Rain = 0
KOD1 181614Z 18014KT 33/22 A2991 RMK A01 T03250220  RH  054%=      5-min Rain = 0
KOD1 181615Z 18016G22KT 33/22 A2991 RMK A01 T03270220  RH  053%=      5-min Rain = 0
KOD1 181616Z 19016G21KT 33/22 A2991 RMK A01 T03260218  RH  053%=      5-min Rain = 0
KOD1 181617Z 18015KT 33/22 A2991 RMK A01 T03250218  RH  053%=      5-min Rain = 0
KOD1 181618Z 18015KT 32/22 A2991 RMK A01 T03240216  RH  053%=      5-min Rain = 0
KOD1 181619Z 18013KT 32/22 A2991 RMK A01 T03230217  RH  054%=      5-min Rain = 0
KOD1 181620Z 18014G19KT 32/22 A2991 RMK A01 T03230218  RH  054%=      5-min Rain = 0
KOD1 181621Z 18013KT 33/22 A2991 RMK A01 T03260220  RH  054%=      5-min Rain = 0
KOD1 181622Z 19014KT 33/22 A2991 RMK A01 T03280220  RH  053%=      5-min Rain = 0
KOD1 181623Z 20017KT 33/22 A2991 RMK A01 T03280218  RH  052%=      5-min Rain = 0
KOD1 181624Z 21013KT 33/22 A2991 RMK A01 T03250217  RH  053%=      5-min Rain = 0
KOD1 181625Z 19014KT 33/22 A2991 RMK A01 T03250219  RH  054%=      5-min Rain = 0
KOD1 181626Z 18018KT 33/22 A2991 RMK A01 T03260217  RH  053%=      5-min Rain = 0
KOD1 181627Z 18013G18KT 32/22 A2991 RMK A01 T03230217  RH  054%=      5-min Rain = 0
KOD1 181628Z 18016KT 32/22 A2991 RMK A01 T03240218  RH  054%=      5-min Rain = 0
KOD1 181629Z 19016KT 33/22 A2992 RMK A01 T03260219  RH  053%=      5-min Rain = 0
KOD1 181630Z 18014KT 33/22 A2992 RMK A01 T03260217  RH  053%=      5-min Rain = 0
KOD1 181631Z 18015G21KT 33/22 A2991 RMK A01 T03260218  RH  053%=      5-min Rain = 0
KOD1 181632Z 18015KT 33/22 A2992 RMK A01 T03270218  RH  053%=      5-min Rain = 0
KOD1 181633Z 17016G23KT 33/22 A2991 RMK A01 T03260217  RH  053%=      5-min Rain = 0
KOD1 181634Z 18019KT 33/22 A2991 RMK A01 T03260216  RH  052%=      5-min Rain = 0
KOD1 181635Z 19017G22KT 33/22 A2991 RMK A01 T03260217  RH  053%=      5-min Rain = 0
KOD1 181636Z 19014G19KT 33/22 A2991 RMK A01 T03260217  RH  053%=      5-min Rain = 0
KOD1 181637Z 19016KT 33/22 A2991 RMK A01 T03280218  RH  053%=      5-min Rain = 0
KOD1 181638Z 19016KT 33/22 A2991 RMK A01 T03270217  RH  052%=      5-min Rain = 0
KOD1 181639Z 19014KT 33/22 A2991 RMK A01 T03260218  RH  053%=      5-min Rain = 0
KOD1 181640Z 18015KT 33/22 A2991 RMK A01 T03280219  RH  053%=      5-min Rain = 0
KOD1 181641Z 18012G17KT 33/22 A2991 RMK A01 T03280220  RH  053%=      5-min Rain = 0
KOD1 181642Z 19013KT 33/22 A2991 RMK A01 T03300220  RH  052%=      5-min Rain = 0
KOD1 181643Z 20016G22KT 33/22 A2991 RMK A01 T03300219  RH  052%=      5-min Rain = 0
KOD1 181644Z 19015G20KT 33/22 A2991 RMK A01 T03300217  RH  052%=      5-min Rain = 0
KOD1 181645Z 18015KT 33/22 A2991 RMK A01 T03310220  RH  052%=      5-min Rain = 0
KOD1 181646Z 18015G20KT 33/22 A2991 RMK A01 T03330218  RH  051%=      5-min Rain = 0
KOD1 181647Z 18015KT 33/22 A2991 RMK A01 T03320219  RH  051%=      5-min Rain = 0
KOD1 181648Z 17014G19KT 33/22 A2991 RMK A01 T03320220  RH  052%=      5-min Rain = 0
KOD1 181649Z 17018KT 33/22 A2991 RMK A01 T03340219  RH  051%=      5-min Rain = 0
KOD1 181650Z 20016KT 33/22 A2991 RMK A01 T03330218  RH  051%=      5-min Rain = 0
KOD1 181651Z 19017KT 33/22 A2991 RMK A01 T03310218  RH  051%=      5-min Rain = 0
KOD1 181652Z 18016G21KT 33/22 A2991 RMK A01 T03320218  RH  051%=      5-min Rain = 0
KOD1 181653Z 17013KT 33/22 A2991 RMK A01 T03320219  RH  052%=      5-min Rain = 0
KOD1 181654Z 17017KT 33/22 A2991 RMK A01 T03340220  RH  051%=      5-min Rain = 0
KOD1 181655Z 17018KT 33/22 A2991 RMK A01 T03330217  RH  051%=      5-min Rain = 0
KOD1 181656Z 18015KT 33/22 A2991 RMK A01 T03320218  RH  051%=      5-min Rain = 0
KOD1 181657Z 20014KT 33/22 A2991 RMK A01 T03320218  RH  051%=      5-min Rain = 0
KOD1 181658Z 21014KT 33/22 A2991 RMK A01 T03340218  RH  051%=      5-min Rain = 0
KOD1 181659Z 20017KT 33/22 A2991 RMK A01 T03340216  RH  050%=      5-min Rain = 0
KOD1 181700Z 21012G18KT 33/22 A2991 RMK A01 T03340220  RH  051%=      5-min Rain = 0
KOD1 181701Z 18014KT 34/22 A2991 RMK A01 T03370219  RH  050%=      5-min Rain = 0
KOD1 181702Z 19014G19KT 34/22 A2991 RMK A01 T03370220  RH  050%=      5-min Rain = 0
KOD1 181703Z 18016KT 34/22 A2991 RMK A01 T03370219  RH  050%=      5-min Rain = 0
KOD1 181704Z 18019KT 34/22 A2991 RMK A01 T03360217  RH  050%=      5-min Rain = 0
KOD1 181705Z 18015KT 33/22 A2991 RMK A01 T03340217  RH  050%=      5-min Rain = 0
KOD1 181706Z 19013KT 34/22 A2991 RMK A01 T03350218  RH  051%=      5-min Rain = 0
KOD1 181707Z 18013KT 34/22 A2991 RMK A01 T03370220  RH  051%=      5-min Rain = 0
KOD1 181708Z 18018KT 34/22 A2991 RMK A01 T03390219  RH  050%=      5-min Rain = 0
KOD1 181709Z 18018KT 34/22 A2991 RMK A01 T03360215  RH  049%=      5-min Rain = 0
KOD1 181710Z 18016KT 34/22 A2991 RMK A01 T03350217  RH  050%=      5-min Rain = 0
KOD1 181711Z 19017KT 33/22 A2991 RMK A01 T03340215  RH  050%=      5-min Rain = 0
KOD1 181712Z 18014KT 33/22 A2991 RMK A01 T03330216  RH  051%=      5-min Rain = 0
KOD1 181713Z 17014G20KT 34/22 A2991 RMK A01 T03360219  RH  051%=      5-min Rain = 0
KOD1 181714Z 18015G21KT 34/22 A2991 RMK A01 T03370218  RH  050%=      5-min Rain = 0
KOD1 181715Z 18012G17KT 34/22 A2991 RMK A01 T03370218  RH  050%=      5-min Rain = 0
KOD1 181716Z 18012KT 34/22 A2991 RMK A01 T03380218  RH  050%=      5-min Rain = 0
KOD1 181717Z 19014G24KT 34/22 A2991 RMK A01 T03390220  RH  050%=      5-min Rain = 0
KOD1 181718Z 19019G24KT 34/22 A2991 RMK A01 T03390216  RH  048%=      5-min Rain = 0
KOD1 181719Z 19017KT 34/22 A2991 RMK A01 T03370216  RH  049%=      5-min Rain = 0
KOD1 181720Z 19016KT 34/22 A2991 RMK A01 T03370216  RH  049%=      5-min Rain = 0
KOD1 181721Z 19015KT 34/22 A2991 RMK A01 T03360216  RH  049%=      5-min Rain = 0
KOD1 181722Z 20015KT 34/22 A2991 RMK A01 T03360216  RH  049%=      5-min Rain = 0
KOD1 181723Z 19016KT 34/22 A2991 RMK A01 T03370216  RH  049%=      5-min Rain = 0
KOD1 181724Z 19016G21KT 34/22 A2991 RMK A01 T03380217  RH  049%=      5-min Rain = 0
KOD1 181725Z 18014KT 34/22 A2991 RMK A01 T03390218  RH  049%=      5-min Rain = 0
KOD1 181726Z 18013KT 34/22 A2991 RMK A01 T03410219  RH  049%=      5-min Rain = 0
KOD1 181727Z 18013KT 34/22 A299 RMK A01 T03410218  RH  049%=      5-min Rain = 0
KOD1 181728Z 19011G16KT 34/22 A299 RMK A01 T03420219  RH  049%=      5-min Rain = 0
KOD1 181729Z 19009G14KT 34/22 A299 RMK A01 T03430222  RH  049%=      5-min Rain = 0
KOD1 181730Z 19017KT 35/22 A299 RMK A01 T03450219  RH  048%=      5-min Rain = 0
KOD1 181731Z 19015KT 34/22 A299 RMK A01 T03410217  RH  048%=      5-min Rain = 0
KOD1 181732Z 20009KT 34/22 A299 RMK A01 T03390218  RH  049%=      5-min Rain = 0
KOD1 181733Z 18010G17KT 34/22 A299 RMK A01 T03410222  RH  050%=      5-min Rain = 0
KOD1 181734Z 18016G22KT 35/22 A299 RMK A01 T03450220  RH  048%=      5-min Rain = 0
KOD1 181735Z 18014G20KT 34/22 A299 RMK A01 T03440220  RH  049%=      5-min Rain = 0
KOD1 181736Z 18014KT 34/22 A299 RMK A01 T03430217  RH  048%=      5-min Rain = 0
KOD1 181737Z 17012G17KT 34/22 A299 RMK A01 T03430218  RH  048%=      5-min Rain = 0
KOD1 181738Z 18019KT 35/22 A299 RMK A01 T03450220  RH  048%=      5-min Rain = 0
KOD1 181739Z 18016KT 34/22 A299 RMK A01 T03430216  RH  048%=      5-min Rain = 0
KOD1 181740Z 18012KT 34/22 A299 RMK A01 T03430219  RH  049%=      5-min Rain = 0
KOD1 181741Z 18013KT 34/22 A299 RMK A01 T03440218  RH  048%=      5-min Rain = 0
KOD1 181742Z 17013KT 34/22 A299 RMK A01 T03440218  RH  048%=      5-min Rain = 0
KOD1 181743Z 17017KT 35/22 A299 RMK A01 T03450219  RH  048%=      5-min Rain = 0
KOD1 181744Z 18016KT 35/22 A299 RMK A01 T03460217  RH  047%=      5-min Rain = 0
KOD1 181745Z 19014KT 34/22 A299 RMK A01 T03440215  RH  047%=      5-min Rain = 0
KOD1 181746Z 17014KT 34/22 A299 RMK A01 T03430217  RH  048%=      5-min Rain = 0
KOD1 181747Z 16014KT 35/22 A299 RMK A01 T03450218  RH  048%=      5-min Rain = 0
KOD1 181748Z 17014KT 35/22 A299 RMK A01 T03460217  RH  047%=      5-min Rain = 0
KOD1 181749Z 18016G21KT 35/22 A299 RMK A01 T03470219  RH  047%=      5-min Rain = 0
KOD1 181750Z 19016G22KT 35/22 A299 RMK A01 T03480217  RH  047%=      5-min Rain = 0
KOD1 181751Z 21016KT 35/22 A299 RMK A01 T03480215  RH  046%=      5-min Rain = 0
KOD1 181752Z 19015G20KT 35/21 A299 RMK A01 T03470213  RH  046%=      5-min Rain = 0
KOD1 181753Z 19013KT 35/21 A299 RMK A01 T03450214  RH  047%=      5-min Rain = 0
KOD1 181754Z 21014KT 35/22 A299 RMK A01 T03460215  RH  047%=      5-min Rain = 0
KOD1 181755Z 18014KT 35/22 A299 RMK A01 T03480215  RH  046%=      5-min Rain = 0
KOD1 181756Z 17015KT 35/22 A299 RMK A01 T03510219  RH  046%=      5-min Rain = 0
KOD1 181757Z 18012KT 35/22 A299 RMK A01 T03500218  RH  046%=      5-min Rain = 0
KOD1 181758Z 18014KT 35/22 A299 RMK A01 T03510219  RH  047%=      5-min Rain = 0
KOD1 181759Z 16014G19KT 35/22 A299 RMK A01 T03500218  RH  046%=      5-min Rain = 0
KOD1 181800Z 17016KT 35/22 A299 RMK A01 T03490216  RH  046%=      5-min Rain = 0
KOD1 181801Z 17013G19KT 35/22 A299 RMK A01 T03480217  RH  047%=      5-min Rain = 0
KOD1 181802Z 16019KT 35/22 A2989 RMK A01 T03490215  RH  046%=      5-min Rain = 0
KOD1 181803Z 16018KT 35/22 A2989 RMK A01 T03490216  RH  046%=      5-min Rain = 0
KOD1 181804Z 16017G22KT 35/22 A2989 RMK A01 T03480216  RH  046%=      5-min Rain = 0
KOD1 181805Z 16015KT 35/22 A2989 RMK A01 T03480217  RH  046%=      5-min Rain = 0
KOD1 181806Z 17016KT 35/22 A2989 RMK A01 T03490217  RH  046%=      5-min Rain = 0
KOD1 181807Z 18015G20KT 35/22 A2989 RMK A01 T03490217  RH  046%=      5-min Rain = 0
KOD1 181808Z 17016KT 35/22 A2989 RMK A01 T03510218  RH  046%=      5-min Rain = 0
KOD1 181809Z 18017KT 35/22 A2989 RMK A01 T03510217  RH  046%=      5-min Rain = 0
KOD1 181810Z 18019KT 35/22 A2989 RMK A01 T03500216  RH  046%=      5-min Rain = 0
KOD1 181811Z 16015KT 35/22 A2989 RMK A01 T03480215  RH  046%=      5-min Rain = 0
KOD1 181812Z 16015KT 35/22 A2989 RMK A01 T03490216  RH  046%=      5-min Rain = 0
KOD1 181813Z 18012KT 35/22 A2989 RMK A01 T03510217  RH  046%=      5-min Rain = 0
KOD1 181814Z 16018KT 35/22 A2989 RMK A01 T03530218  RH  046%=      5-min Rain = 0
KOD1 181815Z 17022KT 35/21 A2989 RMK A01 T03530214  RH  045%=      5-min Rain = 0
KOD1 181816Z 17019KT 35/21 A2989 RMK A01 T03490214  RH  045%=      5-min Rain = 0
KOD1 181817Z 17013KT 35/22 A2989 RMK A01 T03490215  RH  046%=      5-min Rain = 0
KOD1 181818Z 16015KT 35/21 A2989 RMK A01 T03490214  RH  045%=      5-min Rain = 0
KOD1 181819Z 17013G19KT 35/22 A2989 RMK A01 T03500216  RH  046%=      5-min Rain = 0
KOD1 181820Z 18014G19KT 36/22 A2989 RMK A01 T03550218  RH  045%=      5-min Rain = 0
KOD1 181821Z 19016KT 36/21 A2989 RMK A01 T03570213  RH  043%=      5-min Rain = 0
KOD1 181822Z 19016KT 36/21 A2988 RMK A01 T03550212  RH  044%=      5-min Rain = 0
KOD1 181823Z 18013G18KT 36/22 A2989 RMK A01 T03550217  RH  045%=      5-min Rain = 0
KOD1 181824Z 17015KT 36/22 A2988 RMK A01 T03560215  RH  044%=      5-min Rain = 0
KOD1 181825Z 17014G19KT 35/21 A2988 RMK A01 T03540214  RH  044%=      5-min Rain = 0
KOD1 181826Z 19012KT 35/22 A2988 RMK A01 T03520215  RH  045%=      5-min Rain = 0
KOD1 181827Z 20019KT 35/22 A2988 RMK A01 T03540215  RH  045%=      5-min Rain = 0
KOD1 181828Z 20017G22KT 35/21 A2988 RMK A01 T03530211  RH  044%=      5-min Rain = 0
KOD1 181829Z 20016G21KT 35/21 A2988 RMK A01 T03530211  RH  044%=      5-min Rain = 0
KOD1 181830Z 19015G21KT 35/21 A2988 RMK A01 T03520212  RH  044%=      5-min Rain = 0
KOD1 181831Z 19014KT 35/21 A2988 RMK A01 T03530213  RH  044%=      5-min Rain = 0
KOD1 181832Z 20014KT 36/22 A2988 RMK A01 T03550215  RH  044%=      5-min Rain = 0
KOD1 181833Z 20014G19KT 36/22 A2988 RMK A01 T03570215  RH  044%=      5-min Rain = 0
KOD1 181834Z 16016G26KT 36/22 A2988 RMK A01 T03570216  RH  044%=      5-min Rain = 0
KOD1 181835Z 17020KT 36/22 A2988 RMK A01 T03570216  RH  044%=      5-min Rain = 0
KOD1 181836Z 18015KT 36/22 A2988 RMK A01 T03550215  RH  044%=      5-min Rain = 0
KOD1 181837Z 18016KT 35/21 A2988 RMK A01 T03540214  RH  044%=      5-min Rain = 0
KOD1 181838Z 18012G18KT 36/22 A2988 RMK A01 T03550216  RH  045%=      5-min Rain = 0
KOD1 181839Z 18015KT 36/22 A2988 RMK A01 T03550215  RH  044%=      5-min Rain = 0
KOD1 181840Z 18013KT 35/22 A2988 RMK A01 T03540217  RH  045%=      5-min Rain = 0
KOD1 181841Z 16015G20KT 36/22 A2988 RMK A01 T03560216  RH  044%=      5-min Rain = 0
KOD1 181842Z 18015G20KT 36/22 A2988 RMK A01 T03580216  RH  044%=      5-min Rain = 0
KOD1 181843Z 18014KT 36/22 A2988 RMK A01 T03600219  RH  044%=      5-min Rain = 0
KOD1 181844Z 18014G21KT 36/22 A2988 RMK A01 T03610219  RH  044%=      5-min Rain = 0
KOD1 181845Z 17015G20KT 36/22 A2988 RMK A01 T03610218  RH  044%=      5-min Rain = 0
KOD1 181846Z 16019KT 36/22 A2988 RMK A01 T03600216  RH  043%=      5-min Rain = 0
KOD1 181847Z 16020KT 36/22 A2988 RMK A01 T03590215  RH  043%=      5-min Rain = 0
KOD1 181848Z 17018G26KT 36/22 A2988 RMK A01 T03570215  RH  044%=      5-min Rain = 0
KOD1 181849Z 16017KT 36/22 A2988 RMK A01 T03570215  RH  044%=      5-min Rain = 0
KOD1 181850Z 16016KT 36/22 A2987 RMK A01 T03560215  RH  044%=      5-min Rain = 0
KOD1 181851Z 16021KT 36/22 A2987 RMK A01 T03570215  RH  044%=      5-min Rain = 0
KOD1 181852Z 17019KT 36/21 A2987 RMK A01 T03570213  RH  043%=      5-min Rain = 0
KOD1 181853Z 18017KT 36/21 A2987 RMK A01 T03560214  RH  044%=      5-min Rain = 0
KOD1 181854Z 17018KT 36/21 A2987 RMK A01 T03560213  RH  043%=      5-min Rain = 0
KOD1 181855Z 18018KT 36/21 A2987 RMK A01 T03560212  RH  043%=      5-min Rain = 0
KOD1 181856Z 17019KT 36/21 A2987 RMK A01 T03570212  RH  043%=      5-min Rain = 0
KOD1 181857Z 17017KT 36/21 A2987 RMK A01 T03580212  RH  043%=      5-min Rain = 0
KOD1 181858Z 16016KT 36/21 A2987 RMK A01 T03600212  RH  042%=      5-min Rain = 0
KOD1 181859Z 16019KT 36/21 A2987 RMK A01 T03590210  RH  042%=      5-min Rain = 0
KOD1 181900Z 16017KT 36/21 A2987 RMK A01 T03590210  RH  042%=      5-min Rain = 0
KOD1 181901Z 18017KT 36/21 A2987 RMK A01 T03620212  RH  042%=      5-min Rain = 0
KOD1 181902Z 17014G19KT 36/21 A2987 RMK A01 T03600211  RH  042%=      5-min Rain = 0
KOD1 181903Z 16018G24KT 36/21 A2987 RMK A01 T03600212  RH  042%=      5-min Rain = 0
KOD1 181904Z 17017G22KT 36/21 A2987 RMK A01 T03610211  RH  042%=      5-min Rain = 0
KOD1 181905Z 17013KT 36/21 A2987 RMK A01 T03590214  RH  043%=      5-min Rain = 0
KOD1 181906Z 17016KT 36/21 A2987 RMK A01 T03610212  RH  042%=      5-min Rain = 0
KOD1 181907Z 17016G21KT 36/21 A2987 RMK A01 T03600212  RH  042%=      5-min Rain = 0
KOD1 181908Z 19016KT 36/21 A2987 RMK A01 T03620213  RH  042%=      5-min Rain = 0
KOD1 181909Z 18015G20KT 36/21 A2987 RMK A01 T03630213  RH  042%=      5-min Rain = 0
KOD1 181910Z 17015KT 36/21 A2987 RMK A01 T03640214  RH  042%=      5-min Rain = 0
KOD1 181911Z 17015KT 36/21 A2987 RMK A01 T03610212  RH  042%=      5-min Rain = 0
KOD1 181912Z 16017G22KT 36/21 A2987 RMK A01 T03630213  RH  042%=      5-min Rain = 0
KOD1 181913Z 16017KT 36/21 A2987 RMK A01 T03630209  RH  041%=      5-min Rain = 0
KOD1 181914Z 16016KT 36/21 A2987 RMK A01 T03630207  RH  040%=      5-min Rain = 0
KOD1 181915Z 17019KT 36/21 A2987 RMK A01 T03630209  RH  041%=      5-min Rain = 0
KOD1 181916Z 18016KT 36/21 A2987 RMK A01 T03620209  RH  041%=      5-min Rain = 0
KOD1 181917Z 18018KT 36/21 A2987 RMK A01 T03620210  RH  041%=      5-min Rain = 0
KOD1 181918Z 17018KT 36/21 A2987 RMK A01 T03630210  RH  041%=      5-min Rain = 0
KOD1 181919Z 17017KT 36/21 A2987 RMK A01 T03620209  RH  041%=      5-min Rain = 0
KOD1 181920Z 18018KT 36/21 A2987 RMK A01 T03630209  RH  041%=      5-min Rain = 0
KOD1 181921Z 18015KT 36/21 A2987 RMK A01 T03630208  RH  041%=      5-min Rain = 0
KOD1 181922Z 16016KT 36/21 A2987 RMK A01 T03620208  RH  041%=      5-min Rain = 0
KOD1 181923Z 17016KT 36/21 A2987 RMK A01 T03630208  RH  041%=      5-min Rain = 0
KOD1 181924Z 16015KT 36/21 A2987 RMK A01 T03630210  RH  041%=      5-min Rain = 0
KOD1 181925Z 16017KT 37/21 A2987 RMK A01 T03660210  RH  041%=      5-min Rain = 0
KOD1 181926Z 16018G25KT 37/21 A2987 RMK A01 T03650210  RH  041%=      5-min Rain = 0
KOD1 181927Z 16016KT 36/21 A2986 RMK A01 T03640208  RH  040%=      5-min Rain = 0
KOD1 181928Z 16019G27KT 36/21 A2986 RMK A01 T03640209  RH  041%=      5-min Rain = 0
KOD1 181929Z 19016KT 37/21 A2986 RMK A01 T03670213  RH  041%=      5-min Rain = 0
KOD1 181930Z 17016G21KT 37/21 A2986 RMK A01 T03680211  RH  040%=      5-min Rain = 0
KOD1 181931Z 18015G21KT 37/21 A2986 RMK A01 T03680213  RH  041%=      5-min Rain = 0
KOD1 181932Z 18019KT 37/21 A2986 RMK A01 T03670209  RH  040%=      5-min Rain = 0
KOD1 181933Z 18017G22KT 36/21 A2986 RMK A01 T03640209  RH  041%=      5-min Rain = 0
KOD1 181934Z 17014KT 36/21 A2986 RMK A01 T03640211  RH  041%=      5-min Rain = 0
KOD1 181935Z 16014KT 37/21 A2986 RMK A01 T03670213  RH  041%=      5-min Rain = 0
KOD1 181936Z 17018KT 37/21 A2986 RMK A01 T03660208  RH  040%=      5-min Rain = 0
KOD1 181937Z 16017KT 37/21 A2986 RMK A01 T03680206  RH  039%=      5-min Rain = 0
KOD1 181938Z 16018KT 37/21 A2986 RMK A01 T03670207  RH  039%=      5-min Rain = 0
KOD1 181939Z 18017KT 37/21 A2986 RMK A01 T03660208  RH  040%=      5-min Rain = 0
KOD1 181940Z 17015KT 37/21 A2986 RMK A01 T03660210  RH  040%=      5-min Rain = 0
KOD1 181941Z 17016KT 37/21 A2986 RMK A01 T03660207  RH  040%=      5-min Rain = 0
KOD1 181942Z 18016KT 37/21 A2986 RMK A01 T03660210  RH  041%=      5-min Rain = 0
KOD1 181943Z 18018KT 37/21 A2986 RMK A01 T03690210  RH  040%=      5-min Rain = 0
KOD1 181944Z 18016KT 37/21 A2986 RMK A01 T03670205  RH  039%=      5-min Rain = 0
KOD1 181945Z 18014G20KT 37/21 A2986 RMK A01 T03660208  RH  040%=      5-min Rain = 0
KOD1 181946Z 17016G21KT 37/21 A2986 RMK A01 T03670208  RH  040%=      5-min Rain = 0
KOD1 181947Z 18013KT 37/21 A2986 RMK A01 T03680210  RH  040%=      5-min Rain = 0
KOD1 181948Z 18014KT 37/21 A2986 RMK A01 T03690208  RH  039%=      5-min Rain = 0
KOD1 181949Z 18017KT 37/21 A2986 RMK A01 T03680206  RH  039%=      5-min Rain = 0
KOD1 181950Z 18019KT 37/20 A2986 RMK A01 T03680203  RH  038%=      5-min Rain = 0
KOD1 181951Z 19016G21KT 37/21 A2986 RMK A01 T03680205  RH  039%=      5-min Rain = 0
KOD1 181952Z 18018KT 37/21 A2986 RMK A01 T03680205  RH  039%=      5-min Rain = 0
KOD1 181953Z 19016KT 37/21 A2986 RMK A01 T03670205  RH  039%=      5-min Rain = 0
KOD1 181954Z 20016KT 37/21 A2986 RMK A01 T03660207  RH  040%=      5-min Rain = 0
KOD1 181955Z 18014KT 37/21 A2986 RMK A01 T03660210  RH  040%=      5-min Rain = 0
KOD1 181956Z 16017KT 37/21 A2986 RMK A01 T03670210  RH  040%=      5-min Rain = 0
KOD1 181957Z 16016KT 37/21 A2985 RMK A01 T03680209  RH  040%=      5-min Rain = 0
KOD1 181958Z 17015KT 37/21 A2985 RMK A01 T03690209  RH  040%=      5-min Rain = 0
KOD1 181959Z 17016KT 37/21 A2985 RMK A01 T03700211  RH  040%=      5-min Rain = 0
KOD1 182000Z 17017KT 37/21 A2985 RMK A01 T03700209  RH  039%=      5-min Rain = 0
KOD1 182001Z 17015KT 37/21 A2985 RMK A01 T03700211  RH  040%=      5-min Rain = 0
KOD1 182002Z 17017KT 37/21 A2985 RMK A01 T03730212  RH  039%=      5-min Rain = 0
KOD1 182003Z 17018KT 37/21 A2985 RMK A01 T03710209  RH  039%=      5-min Rain = 0
KOD1 182004Z 17016G21KT 37/21 A2985 RMK A01 T03680209  RH  040%=      5-min Rain = 0
KOD1 182005Z 17020KT 37/21 A2985 RMK A01 T03690210  RH  040%=      5-min Rain = 0
KOD1 182006Z 17019KT 37/21 A2985 RMK A01 T03680206  RH  039%=      5-min Rain = 0
KOD1 182007Z 18016G21KT 37/21 A2985 RMK A01 T03690207  RH  039%=      5-min Rain = 0
KOD1 182008Z 19016G21KT 37/21 A2985 RMK A01 T03710205  RH  038%=      5-min Rain = 0
KOD1 182009Z 18018KT 37/20 A2985 RMK A01 T03710203  RH  038%=      5-min Rain = 0
KOD1 182010Z 19016G22KT 37/21 A2985 RMK A01 T03690205  RH  039%=      5-min Rain = 0
KOD1 182011Z 19016G24KT 37/21 A2985 RMK A01 T03680205  RH  039%=      5-min Rain = 0
KOD1 182012Z 19016KT 37/21 A2985 RMK A01 T03680207  RH  039%=      5-min Rain = 0
KOD1 182013Z 17016KT 37/21 A2985 RMK A01 T03690210  RH  040%=      5-min Rain = 0
KOD1 182014Z 18015KT 37/21 A2985 RMK A01 T03700210  RH  040%=      5-min Rain = 0
KOD1 182015Z 17016G21KT 37/21 A2985 RMK A01 T03690210  RH  040%=      5-min Rain = 0
KOD1 182016Z 17017KT 37/21 A2985 RMK A01 T03700210  RH  040%=      5-min Rain = 0
KOD1 182017Z 17018KT 37/21 A2985 RMK A01 T03700209  RH  039%=      5-min Rain = 0
KOD1 182018Z 18014G20KT 37/21 A2985 RMK A01 T03700209  RH  039%=      5-min Rain = 0
KOD1 182019Z 16016KT 37/21 A2985 RMK A01 T03690208  RH  039%=      5-min Rain = 0
KOD1 182020Z 17015KT 37/21 A2985 RMK A01 T03690207  RH  039%=      5-min Rain = 0
KOD1 182021Z 18018KT 37/21 A2985 RMK A01 T03690206  RH  039%=      5-min Rain = 0
KOD1 182022Z 17017KT 37/21 A2985 RMK A01 T03700207  RH  039%=      5-min Rain = 0
KOD1 182023Z 18020KT 37/21 A2985 RMK A01 T03720207  RH  038%=      5-min Rain = 0
KOD1 182024Z 19017KT 37/20 A2985 RMK A01 T03710204  RH  038%=      5-min Rain = 0
KOD1 182025Z 18017G22KT 37/21 A2985 RMK A01 T03700205  RH  038%=      5-min Rain = 0
KOD1 182026Z 18017KT 37/21 A2985 RMK A01 T03710205  RH  038%=      5-min Rain = 0
KOD1 182027Z 18016KT 37/21 A2985 RMK A01 T03690205  RH  039%=      5-min Rain = 0
KOD1 182028Z 17012KT 37/21 A2985 RMK A01 T03690208  RH  039%=      5-min Rain = 0
KOD1 182029Z 16012G17KT 37/21 A2984 RMK A01 T03730212  RH  040%=      5-min Rain = 0
KOD1 182030Z 17015G20KT 38/21 A2984 RMK A01 T03770213  RH  039%=      5-min Rain = 0
KOD1 182031Z 17017KT 38/21 A2984 RMK A01 T03770212  RH  038%=      5-min Rain = 0
KOD1 182032Z 17017KT 38/21 A2984 RMK A01 T03750211  RH  039%=      5-min Rain = 0
KOD1 182033Z 17016KT 38/21 A2984 RMK A01 T03750208  RH  038%=      5-min Rain = 0
KOD1 182034Z 18018KT 37/21 A2984 RMK A01 T03740207  RH  038%=      5-min Rain = 0
KOD1 182035Z 17022KT 37/20 A2984 RMK A01 T03730204  RH  037%=      5-min Rain = 0
KOD1 182036Z 16019G25KT 37/20 A2984 RMK A01 T03710200  RH  037%=      5-min Rain = 0
KOD1 182037Z 16017G22KT 37/20 A2984 RMK A01 T03720200  RH  037%=      5-min Rain = 0
KOD1 182038Z 16015G20KT 37/20 A2984 RMK A01 T03730202  RH  037%=      5-min Rain = 0
KOD1 182039Z 18018KT 37/20 A2984 RMK A01 T03730204  RH  037%=      5-min Rain = 0
KOD1 182040Z 17018KT 37/21 A2984 RMK A01 T03730205  RH  038%=      5-min Rain = 0
KOD1 182041Z 17019KT 37/20 A2984 RMK A01 T03710201  RH  037%=      5-min Rain = 0
KOD1 182042Z 17015G20KT 37/21 A2984 RMK A01 T03700206  RH  039%=      5-min Rain = 0
KOD1 182043Z 17016KT 37/21 A2984 RMK A01 T03720208  RH  039%=      5-min Rain = 0
KOD1 182044Z 16016KT 37/21 A2984 RMK A01 T03720206  RH  038%=      5-min Rain = 0
KOD1 182045Z 16018KT 37/21 A2984 RMK A01 T03730205  RH  038%=      5-min Rain = 0
KOD1 182046Z 17017G22KT 37/20 A2984 RMK A01 T03720203  RH  037%=      5-min Rain = 0
KOD1 182047Z 17019KT 37/20 A2984 RMK A01 T03710204  RH  038%=      5-min Rain = 0
KOD1 182048Z 18018G23KT 37/20 A2984 RMK A01 T03720203  RH  038%=      5-min Rain = 0
KOD1 182049Z 19017KT 37/21 A2984 RMK A01 T03730205  RH  038%=      5-min Rain = 0
KOD1 182050Z 19015KT 37/20 A2983 RMK A01 T03730204  RH  038%=      5-min Rain = 0
KOD1 182051Z 18018G23KT 38/21 A2983 RMK A01 T03750205  RH  037%=      5-min Rain = 0
KOD1 182052Z 19017KT 37/20 A2983 RMK A01 T03730203  RH  037%=      5-min Rain = 0
KOD1 182053Z 18020KT 37/21 A2983 RMK A01 T03710206  RH  038%=      5-min Rain = 0
KOD1 182054Z 17020G26KT 37/21 A2984 RMK A01 T03710207  RH  038%=      5-min Rain = 0
KOD1 182055Z 18013KT 37/21 A2984 RMK A01 T03710207  RH  039%=      5-min Rain = 0
KOD1 182056Z 17013G18KT 37/21 A2984 RMK A01 T03730211  RH  039%=      5-min Rain = 0
KOD1 182057Z 18017KT 38/21 A2983 RMK A01 T03760206  RH  037%=      5-min Rain = 0
KOD1 182058Z 18015KT 38/20 A2983 RMK A01 T03750203  RH  037%=      5-min Rain = 0
KOD1 182059Z 17015KT 38/20 A2984 RMK A01 T03750203  RH  037%=      5-min Rain = 0
KOD1 182100Z 18019G24KT 38/20 A2983 RMK A01 T03770202  RH  036%=      5-min Rain = 0
KOD1 182101Z 18018KT 38/20 A2983 RMK A01 T03760201  RH  036%=      5-min Rain = 0
KOD1 182102Z 18016G21KT 38/20 A2983 RMK A01 T03760202  RH  036%=      5-min Rain = 0
KOD1 182103Z 17017KT 38/20 A2983 RMK A01 T03750200  RH  036%=      5-min Rain = 0
KOD1 182104Z 19017KT 37/20 A2983 RMK A01 T03730201  RH  037%=      5-min Rain = 0
KOD1 182105Z 18015G20KT 37/21 A2983 RMK A01 T03740205  RH  038%=      5-min Rain = 0
KOD1 182106Z 17019KT 37/20 A2983 RMK A01 T03740204  RH  037%=      5-min Rain = 0
KOD1 182107Z 18016KT 37/20 A2983 RMK A01 T03740203  RH  037%=      5-min Rain = 0
KOD1 182108Z 19016G22KT 37/20 A2983 RMK A01 T03740202  RH  037%=      5-min Rain = 0
KOD1 182109Z 18016KT 37/20 A2983 RMK A01 T03740201  RH  037%=      5-min Rain = 0
KOD1 182110Z 18016KT 37/20 A2983 RMK A01 T03740201  RH  037%=      5-min Rain = 0
KOD1 182111Z 18016KT 37/20 A2983 RMK A01 T03740200  RH  037%=      5-min Rain = 0
KOD1 182112Z 17017KT 37/20 A2983 RMK A01 T03740200  RH  036%=      5-min Rain = 0
KOD1 182113Z 17015KT 37/20 A2983 RMK A01 T03740199  RH  036%=      5-min Rain = 0
KOD1 182114Z 17016G23KT 38/20 A2983 RMK A01 T03750204  RH  037%=      5-min Rain = 0
KOD1 182115Z 17020KT 37/20 A2983 RMK A01 T03740203  RH  037%=      5-min Rain = 0
KOD1 182116Z 17019KT 37/20 A2983 RMK A01 T03720203  RH  037%=      5-min Rain = 0
KOD1 182117Z 18014KT 37/20 A2983 RMK A01 T03720203  RH  038%=      5-min Rain = 0
KOD1 182118Z 18011KT 37/21 A2983 RMK A01 T03730205  RH  038%=      5-min Rain = 0
KOD1 182119Z 17015G20KT 37/21 A2983 RMK A01 T03740206  RH  038%=      5-min Rain = 0
KOD1 182120Z 15019KT 38/20 A2983 RMK A01 T03750204  RH  037%=      5-min Rain = 0
KOD1 182121Z 16019KT 38/20 A2983 RMK A01 T03750201  RH  037%=      5-min Rain = 0
KOD1 182122Z 16019G25KT 37/20 A2983 RMK A01 T03730200  RH  037%=      5-min Rain = 0
KOD1 182123Z 18020G25KT 37/20 A2983 RMK A01 T03740197  RH  036%=      5-min Rain = 0
KOD1 182124Z 19018KT 37/20 A2983 RMK A01 T03740195  RH  035%=      5-min Rain = 0
KOD1 182125Z 17020KT 37/20 A2983 RMK A01 T03740197  RH  036%=      5-min Rain = 0
KOD1 182126Z 17018KT 37/20 A2983 RMK A01 T03730202  RH  037%=      5-min Rain = 0
KOD1 182127Z 17015KT 37/20 A2983 RMK A01 T03740203  RH  037%=      5-min Rain = 0
KOD1 182128Z 17013KT 37/20 A2983 RMK A01 T03740203  RH  037%=      5-min Rain = 0
KOD1 182129Z 17017KT 38/21 A2983 RMK A01 T03750205  RH  037%=      5-min Rain = 0
KOD1 182130Z 17015KT 38/20 A2983 RMK A01 T03750204  RH  037%=      5-min Rain = 0
KOD1 182131Z 16014G19KT 37/21 A2983 RMK A01 T03740205  RH  038%=      5-min Rain = 0
KOD1 182132Z 17014KT 38/21 A2983 RMK A01 T03750205  RH  037%=      5-min Rain = 0
KOD1 182133Z 17020G25KT 38/20 A2982 RMK A01 T03750203  RH  037%=      5-min Rain = 0
KOD1 182134Z 16020G25KT 38/20 A2982 RMK A01 T03750203  RH  037%=      5-min Rain = 0
KOD1 182135Z 16022KT 37/20 A2982 RMK A01 T03740200  RH  036%=      5-min Rain = 0
KOD1 182136Z 16016G22KT 37/20 A2982 RMK A01 T03730203  RH  037%=      5-min Rain = 0
KOD1 182137Z 17018G23KT 38/20 A2982 RMK A01 T03750203  RH  037%=      5-min Rain = 0
KOD1 182138Z 18019G24KT 37/20 A2982 RMK A01 T03740201  RH  037%=      5-min Rain = 0
KOD1 182139Z 18020KT 37/20 A2982 RMK A01 T03730202  RH  037%=      5-min Rain = 0
KOD1 182140Z 18018G25KT 37/20 A2982 RMK A01 T03730201  RH  037%=      5-min Rain = 0
KOD1 182141Z 17020KT 37/20 A2982 RMK A01 T03730200  RH  037%=      5-min Rain = 0
KOD1 182142Z 19020KT 37/20 A2982 RMK A01 T03730201  RH  037%=      5-min Rain = 0
KOD1 182143Z 18016KT 37/20 A2982 RMK A01 T03730202  RH  037%=      5-min Rain = 0
KOD1 182144Z 17017KT 37/20 A2982 RMK A01 T03740204  RH  037%=      5-min Rain = 0
KOD1 182145Z 16013KT 37/21 A2982 RMK A01 T03740205  RH  038%=      5-min Rain = 0
KOD1 182146Z 16014G20KT 38/21 A2982 RMK A01 T03770207  RH  037%=      5-min Rain = 0
KOD1 182147Z 16018KT 38/20 A2982 RMK A01 T03780204  RH  036%=      5-min Rain = 0
KOD1 182148Z 15017KT 38/20 A2982 RMK A01 T03760203  RH  037%=      5-min Rain = 0
KOD1 182149Z 16016KT 38/20 A2982 RMK A01 T03770204  RH  037%=      5-min Rain = 0
KOD1 182150Z 17013KT 38/21 A2982 RMK A01 T03770206  RH  037%=      5-min Rain = 0
KOD1 182151Z 18019KT 38/20 A2982 RMK A01 T03770203  RH  037%=      5-min Rain = 0
KOD1 182152Z 17020KT 38/20 A2982 RMK A01 T03750199  RH  036%=      5-min Rain = 0
KOD1 182153Z 17017KT 37/20 A2982 RMK A01 T03730198  RH  036%=      5-min Rain = 0
KOD1 182154Z 17019G24KT 37/20 A2982 RMK A01 T03730199  RH  036%=      5-min Rain = 0
KOD1 182155Z 17020G26KT 37/20 A2982 RMK A01 T03730200  RH  037%=      5-min Rain = 0
KOD1 182156Z 18019KT 37/20 A2982 RMK A01 T03740203  RH  037%=      5-min Rain = 0
KOD1 182157Z 18018KT 37/20 A2982 RMK A01 T03740201  RH  037%=      5-min Rain = 0
KOD1 182158Z 18016KT 37/20 A2982 RMK A01 T03730202  RH  037%=      5-min Rain = 0
KOD1 182159Z 17019KT 37/20 A2982 RMK A01 T03730202  RH  037%=      5-min Rain = 0
KOD1 182200Z 16016KT 37/20 A2982 RMK A01 T03730202  RH  037%=      5-min Rain = 0
KOD1 182201Z 18015KT 37/21 A2982 RMK A01 T03730205  RH  038%=      5-min Rain = 0
KOD1 182202Z 18018G23KT 37/20 A2982 RMK A01 T03740203  RH  037%=      5-min Rain = 0
KOD1 182203Z 18019KT 37/20 A2982 RMK A01 T03740202  RH  037%=      5-min Rain = 0
KOD1 182204Z 18016KT 37/20 A2982 RMK A01 T03730203  RH  037%=      5-min Rain = 0
KOD1 182205Z 18014KT 37/21 A2982 RMK A01 T03740205  RH  037%=      5-min Rain = 0
KOD1 182206Z 17016G21KT 38/20 A2981 RMK A01 T03750203  RH  037%=      5-min Rain = 0
KOD1 182207Z 18017KT 38/21 A2981 RMK A01 T03760206  RH  037%=      5-min Rain = 0
KOD1 182208Z 17016KT 38/21 A2981 RMK A01 T03760205  RH  037%=      5-min Rain = 0
KOD1 182209Z 16018KT 38/20 A2981 RMK A01 T03750204  RH  037%=      5-min Rain = 0
KOD1 182210Z 16018KT 38/21 A2981 RMK A01 T03760205  RH  037%=      5-min Rain = 0
KOD1 182211Z 17016G21KT 38/20 A2982 RMK A01 T03750204  RH  037%=      5-min Rain = 0
KOD1 182212Z 16020KT 37/20 A2981 RMK A01 T03740202  RH  037%=      5-min Rain = 0
KOD1 182213Z 17017KT 37/20 A2982 RMK A01 T03730203  RH  037%=      5-min Rain = 0
KOD1 182214Z 17018KT 37/20 A2982 RMK A01 T03730204  RH  037%=      5-min Rain = 0
KOD1 182215Z 17016KT 37/20 A2981 RMK A01 T03720202  RH  037%=      5-min Rain = 0
KOD1 182216Z 15017KT 37/20 A2981 RMK A01 T03720203  RH  037%=      5-min Rain = 0
KOD1 182217Z 15020KT 38/20 A2981 RMK A01 T03760201  RH  036%=      5-min Rain = 0
KOD1 182218Z 15020KT 38/20 A2981 RMK A01 T03750200  RH  036%=      5-min Rain = 0
KOD1 182219Z 16021KT 37/20 A2981 RMK A01 T03730200  RH  037%=      5-min Rain = 0
KOD1 182220Z 15016KT 37/20 A2981 RMK A01 T03720201  RH  037%=      5-min Rain = 0
KOD1 182221Z 15018KT 37/20 A2981 RMK A01 T03740202  RH  037%=      5-min Rain = 0
KOD1 182222Z 16022G28KT 38/20 A2981 RMK A01 T03750199  RH  036%=      5-min Rain = 0
KOD1 182223Z 17019KT 37/20 A2981 RMK A01 T03720199  RH  037%=      5-min Rain = 0
KOD1 182224Z 17019KT 37/20 A2981 RMK A01 T03710199  RH  037%=      5-min Rain = 0
KOD1 182225Z 16016KT 37/20 A2981 RMK A01 T03700199  RH  037%=      5-min Rain = 0
KOD1 182226Z 17019KT 37/20 A2981 RMK A01 T03720201  RH  037%=      5-min Rain = 0
KOD1 182227Z 17018G24KT 37/20 A2981 RMK A01 T03720202  RH  037%=      5-min Rain = 0
KOD1 182228Z 17020G26KT 37/20 A2981 RMK A01 T03720202  RH  037%=      5-min Rain = 0
KOD1 182229Z 17018KT 37/20 A2981 RMK A01 T03710202  RH  037%=      5-min Rain = 0
KOD1 182230Z 17014G20KT 37/20 A2981 RMK A01 T03710203  RH  038%=      5-min Rain = 0
KOD1 182231Z 17014KT 37/21 A2981 RMK A01 T03730206  RH  038%=      5-min Rain = 0
KOD1 182232Z 17015G20KT 37/20 A2981 RMK A01 T03740204  RH  037%=      5-min Rain = 0
KOD1 182233Z 17018KT 37/21 A2981 RMK A01 T03730205  RH  038%=      5-min Rain = 0
KOD1 182234Z 16020KT 37/21 A2981 RMK A01 T03730206  RH  038%=      5-min Rain = 0
KOD1 182235Z 17021G26KT 37/21 A2981 RMK A01 T03730206  RH  038%=      5-min Rain = 0
KOD1 182236Z 17020KT 37/21 A2981 RMK A01 T03720206  RH  038%=      5-min Rain = 0
KOD1 182237Z 16021G26KT 37/21 A2981 RMK A01 T03720207  RH  038%=      5-min Rain = 0
KOD1 182238Z 17021KT 37/21 A2981 RMK A01 T03720205  RH  038%=      5-min Rain = 0
KOD1 182239Z 16018KT 37/21 A2981 RMK A01 T03710207  RH  039%=      5-min Rain = 0
KOD1 182240Z 16019G24KT 37/21 A298 RMK A01 T03720209  RH  039%=      5-min Rain = 0
KOD1 182241Z 16021KT 37/21 A298 RMK A01 T03710210  RH  039%=      5-min Rain = 0
KOD1 182242Z 16021KT 37/21 A298 RMK A01 T03700210  RH  039%=      5-min Rain = 0
KOD1 182243Z 15020G25KT 37/21 A298 RMK A01 T03700209  RH  039%=      5-min Rain = 0
KOD1 182244Z 15022KT 37/21 A298 RMK A01 T03720208  RH  039%=      5-min Rain = 0
KOD1 182245Z 16022KT 37/21 A298 RMK A01 T03720208  RH  039%=      5-min Rain = 0
KOD1 182246Z 16021KT 37/21 A298 RMK A01 T03700207  RH  039%=      5-min Rain = 0
KOD1 182247Z 16021KT 37/21 A298 RMK A01 T03680208  RH  039%=      5-min Rain = 0
KOD1 182248Z 16019G27KT 37/21 A298 RMK A01 T03680210  RH  040%=      5-min Rain = 0
KOD1 182249Z 15020G28KT 37/21 A298 RMK A01 T03690209  RH  039%=      5-min Rain = 0
KOD1 182250Z 17020KT 37/21 A298 RMK A01 T03710208  RH  039%=      5-min Rain = 0
KOD1 182251Z 16018G25KT 37/21 A298 RMK A01 T03700210  RH  040%=      5-min Rain = 0
KOD1 182252Z 16022G27KT 37/21 A298 RMK A01 T03690210  RH  040%=      5-min Rain = 0
KOD1 182253Z 16023G28KT 37/21 A298 RMK A01 T03690209  RH  040%=      5-min Rain = 0
KOD1 182254Z 16024KT 37/21 A298 RMK A01 T03670207  RH  039%=      5-min Rain = 0
KOD1 182255Z 15019KT 37/21 A2979 RMK A01 T03680207  RH  039%=      5-min Rain = 0
KOD1 182256Z 16023KT 37/21 A2979 RMK A01 T03690209  RH  039%=      5-min Rain = 0
KOD1 182257Z 16022G27KT 37/21 A298 RMK A01 T03680209  RH  040%=      5-min Rain = 0
KOD1 182258Z 17022G28KT 37/21 A298 RMK A01 T03670207  RH  040%=      5-min Rain = 0
KOD1 182259Z 17021KT 37/21 A2979 RMK A01 T03650209  RH  040%=      5-min Rain = 0
KOD1 182300Z 17020KT 37/21 A298 RMK A01 T03650211  RH  041%=      5-min Rain = 0
KOD1 182301Z 17024KT 37/21 A2979 RMK A01 T03650209  RH  041%=      5-min Rain = 0
KOD1 182302Z 16019KT 37/21 A2979 RMK A01 T03650210  RH  041%=      5-min Rain = 0
KOD1 182303Z 16015G21KT 37/21 A2979 RMK A01 T03660212  RH  041%=      5-min Rain = 0
KOD1 182304Z 16019G24KT 37/21 A2979 RMK A01 T03680212  RH  041%=      5-min Rain = 0
KOD1 182305Z 15023KT 37/21 A2979 RMK A01 T03680210  RH  040%=      5-min Rain = 0
KOD1 182306Z 15022KT 37/21 A2979 RMK A01 T03670209  RH  040%=      5-min Rain = 0
KOD1 182307Z 16015G21KT 37/21 A2979 RMK A01 T03670212  RH  041%=      5-min Rain = 0
KOD1 182308Z 16022G27KT 37/21 A2979 RMK A01 T03670210  RH  040%=      5-min Rain = 0
KOD1 182309Z 16019KT 37/21 A2979 RMK A01 T03660210  RH  040%=      5-min Rain = 0
KOD1 182310Z 16018G24KT 37/21 A2979 RMK A01 T03660211  RH  041%=      5-min Rain = 0
KOD1 182311Z 16017G25KT 37/21 A2979 RMK A01 T03670214  RH  041%=      5-min Rain = 0
KOD1 182312Z 16018G23KT 37/21 A2979 RMK A01 T03670212  RH  041%=      5-min Rain = 0
KOD1 182313Z 17019G25KT 37/21 A2979 RMK A01 T03670213  RH  041%=      5-min Rain = 0
KOD1 182314Z 16017G22KT 37/21 A2979 RMK A01 T03660212  RH  041%=      5-min Rain = 0
KOD1 182315Z 16021KT 37/21 A2979 RMK A01 T03650209  RH  040%=      5-min Rain = 0
KOD1 182316Z 16018KT 37/21 A2979 RMK A01 T03650210  RH  041%=      5-min Rain = 0
KOD1 182317Z 17017KT 37/21 A2979 RMK A01 T03660211  RH  041%=      5-min Rain = 0
KOD1 182318Z 16018KT 37/21 A2979 RMK A01 T03660210  RH  041%=      5-min Rain = 0
KOD1 182319Z 15022G27KT 37/21 A2979 RMK A01 T03660210  RH  040%=      5-min Rain = 0
KOD1 182320Z 15024KT 37/21 A2979 RMK A01 T03650208  RH  040%=      5-min Rain = 0
KOD1 182321Z 16020KT 36/21 A2979 RMK A01 T03640210  RH  041%=      5-min Rain = 0
KOD1 182322Z 16017G23KT 37/21 A2979 RMK A01 T03650210  RH  041%=      5-min Rain = 0
KOD1 182323Z 16018KT 37/21 A2979 RMK A01 T03650209  RH  041%=      5-min Rain = 0
KOD1 182324Z 16020KT 36/21 A2979 RMK A01 T03640209  RH  041%=      5-min Rain = 0
KOD1 182325Z 16018KT 36/21 A2979 RMK A01 T03640209  RH  041%=      5-min Rain = 0
KOD1 182326Z 16016KT 37/21 A2979 RMK A01 T03650212  RH  041%=      5-min Rain = 0
KOD1 182327Z 17021KT 37/21 A2979 RMK A01 T03650209  RH  040%=      5-min Rain = 0
KOD1 182328Z 17019G25KT 36/21 A2979 RMK A01 T03630207  RH  040%=      5-min Rain = 0
KOD1 182329Z 16018KT 36/21 A2979 RMK A01 T03630209  RH  041%=      5-min Rain = 0
KOD1 182330Z 15016KT 36/21 A2979 RMK A01 T03630209  RH  041%=      5-min Rain = 0
KOD1 182331Z 15017G22KT 37/21 A2979 RMK A01 T03650208  RH  040%=      5-min Rain = 0
KOD1 182332Z 15020KT 37/21 A2979 RMK A01 T03650207  RH  040%=      5-min Rain = 0
KOD1 182333Z 16018KT 37/21 A2979 RMK A01 T03650208  RH  040%=      5-min Rain = 0
KOD1 182334Z 16018KT 37/21 A2979 RMK A01 T03650208  RH  040%=      5-min Rain = 0
KOD1 182335Z 16021KT 36/21 A2979 RMK A01 T03640207  RH  040%=      5-min Rain = 0
KOD1 182336Z 16017KT 36/21 A2979 RMK A01 T03640207  RH  040%=      5-min Rain = 0
KOD1 182337Z 16014G19KT 36/21 A2979 RMK A01 T03640209  RH  041%=      5-min Rain = 0
KOD1 182338Z 16018G23KT 37/21 A298 RMK A01 T03660208  RH  040%=      5-min Rain = 0
KOD1 182339Z 16020G25KT 37/21 A298 RMK A01 T03650206  RH  040%=      5-min Rain = 0
KOD1 182340Z 16017KT 36/21 A298 RMK A01 T03630206  RH  040%=      5-min Rain = 0
KOD1 182341Z 16022KT 36/21 A298 RMK A01 T03630206  RH  040%=      5-min Rain = 0
KOD1 182342Z 17020G25KT 36/21 A298 RMK A01 T03620206  RH  040%=      5-min Rain = 0
KOD1 182343Z 17019KT 36/21 A298 RMK A01 T03610205  RH  040%=      5-min Rain = 0
KOD1 182344Z 16019KT 36/21 A298 RMK A01 T03610205  RH  040%=      5-min Rain = 0
KOD1 182345Z 15020KT 36/20 A298 RMK A01 T03620203  RH  040%=      5-min Rain = 0
KOD1 182346Z 16017KT 36/20 A298 RMK A01 T03620203  RH  040%=      5-min Rain = 0
KOD1 182347Z 16018G23KT 36/20 A298 RMK A01 T03620204  RH  040%=      5-min Rain = 0
KOD1 182348Z 15019KT 36/21 A298 RMK A01 T03620205  RH  040%=      5-min Rain = 0
KOD1 182349Z 16019KT 36/21 A298 RMK A01 T03620205  RH  040%=      5-min Rain = 0
KOD1 182350Z 15019G26KT 36/21 A298 RMK A01 T03620205  RH  040%=      5-min Rain = 0
KOD1 182351Z 15018KT 36/21 A298 RMK A01 T03620205  RH  040%=      5-min Rain = 0
KOD1 182352Z 16018KT 36/21 A298 RMK A01 T03620206  RH  040%=      5-min Rain = 0
KOD1 182353Z 16015G21KT 36/21 A298 RMK A01 T03620207  RH  040%=      5-min Rain = 0
KOD1 182354Z 16018KT 36/21 A298 RMK A01 T03620205  RH  040%=      5-min Rain = 0
KOD1 182355Z 16017KT 36/21 A298 RMK A01 T03610206  RH  040%=      5-min Rain = 0
KOD1 182356Z 16017G23KT 36/21 A298 RMK A01 T03620205  RH  040%=      5-min Rain = 0
KOD1 182357Z 16022G27KT 36/20 A298 RMK A01 T03610204  RH  040%=      5-min Rain = 0
KOD1 182358Z 16018KT 36/20 A298 RMK A01 T03600202  RH  040%=      5-min Rain = 0
KOD1 182359Z 16017KT 36/20 A298 RMK A01 T03590203  RH  040%=      5-min Rain = 0
KOD1 190000Z 16019KT 36/20 A298 RMK A01 T03590202  RH  040%=      5-min Rain = 0
KOD1 190001Z 16020KT 36/20 A298 RMK A01 T03580201  RH  040%=      5-min Rain = 0
KOD1 190002Z 16019KT 36/20 A298 RMK A01 T03580202  RH  040%=      5-min Rain = 0
KOD1 190003Z 15018KT 36/20 A298 RMK A01 T03580203  RH  040%=      5-min Rain = 0
KOD1 190004Z 16016KT 36/20 A298 RMK A01 T03600204  RH  040%=      5-min Rain = 0
KOD1 190005Z 16017KT 36/20 A298 RMK A01 T03590203  RH  040%=      5-min Rain = 0
KOD1 190006Z 17020KT 36/20 A298 RMK A01 T03590203  RH  040%=      5-min Rain = 0
KOD1 190007Z 17019KT 36/20 A298 RMK A01 T03580203  RH  040%=      5-min Rain = 0
KOD1 190008Z 16021KT 36/20 A298 RMK A01 T03570202  RH  040%=      5-min Rain = 0
KOD1 190009Z 17018KT 36/20 A298 RMK A01 T03570204  RH  041%=      5-min Rain = 0
KOD1 190010Z 17018KT 36/21 A298 RMK A01 T03580205  RH  041%=      5-min Rain = 0
KOD1 190011Z 16017KT 36/21 A298 RMK A01 T03570205  RH  041%=      5-min Rain = 0
KOD1 190012Z 16013KT 36/21 A298 RMK A01 T03570205  RH  041%=      5-min Rain = 0
KOD1 190013Z 16016KT 36/21 A298 RMK A01 T03580205  RH  041%=      5-min Rain = 0
KOD1 190014Z 16014KT 36/21 A298 RMK A01 T03580205  RH  041%=      5-min Rain = 0
KOD1 190015Z 15018KT 36/21 A298 RMK A01 T03580205  RH  041%=      5-min Rain = 0
KOD1 190016Z 16019KT 36/21 A298 RMK A01 T03580205  RH  041%=      5-min Rain = 0
KOD1 190017Z 17019KT 36/20 A298 RMK A01 T03570204  RH  041%=      5-min Rain = 0
KOD1 190018Z 16016G21KT 36/21 A298 RMK A01 T03560205  RH  041%=      5-min Rain = 0
KOD1 190019Z 16014G19KT 36/21 A298 RMK A01 T03570206  RH  041%=      5-min Rain = 0
KOD1 190020Z 16020G26KT 36/20 A298 RMK A01 T03570202  RH  041%=      5-min Rain = 0
KOD1 190021Z 16019G24KT 36/20 A298 RMK A01 T03560202  RH  041%=      5-min Rain = 0
KOD1 190022Z 16017KT 36/20 A298 RMK A01 T03560202  RH  041%=      5-min Rain = 0
KOD1 190023Z 16016KT 36/20 A298 RMK A01 T03560203  RH  041%=      5-min Rain = 0
KOD1 190024Z 15016KT 36/20 A298 RMK A01 T03560203  RH  041%=      5-min Rain = 0
KOD1 190025Z 16018KT 36/20 A298 RMK A01 T03560202  RH  041%=      5-min Rain = 0
KOD1 190026Z 15016KT 36/20 A298 RMK A01 T03550202  RH  041%=      5-min Rain = 0
KOD1 190027Z 16016KT 36/20 A298 RMK A01 T03550202  RH  041%=      5-min Rain = 0
KOD1 190028Z 16014KT 36/20 A298 RMK A01 T03550203  RH  041%=      5-min Rain = 0
KOD1 190029Z 15016KT 36/20 A298 RMK A01 T03560203  RH  041%=      5-min Rain = 0
KOD1 190030Z 15016G22KT 36/20 A298 RMK A01 T03560203  RH  041%=      5-min Rain = 0
KOD1 190031Z 15019KT 36/20 A298 RMK A01 T03550201  RH  041%=      5-min Rain = 0
KOD1 190032Z 16016KT 36/20 A298 RMK A01 T03550201  RH  041%=      5-min Rain = 0
KOD1 190033Z 16019KT 36/20 A298 RMK A01 T03550201  RH  041%=      5-min Rain = 0
KOD1 190034Z 16016KT 35/20 A298 RMK A01 T03540200  RH  041%=      5-min Rain = 0
KOD1 190035Z 16019KT 35/20 A298 RMK A01 T03540200  RH  041%=      5-min Rain = 0
KOD1 190036Z 16017G22KT 35/20 A298 RMK A01 T03540200  RH  041%=      5-min Rain = 0
KOD1 190037Z 15018KT 35/20 A298 RMK A01 T03530199  RH  041%=      5-min Rain = 0
KOD1 190038Z 16017G22KT 35/20 A298 RMK A01 T03530200  RH  041%=      5-min Rain = 0
KOD1 190039Z 16018KT 35/20 A298 RMK A01 T03530200  RH  041%=      5-min Rain = 0
KOD1 190040Z 16012KT 35/20 A298 RMK A01 T03530202  RH  041%=      5-min Rain = 0
KOD1 190041Z 16014KT 35/20 A298 RMK A01 T03530203  RH  042%=      5-min Rain = 0
KOD1 190042Z 16016KT 35/20 A298 RMK A01 T03520202  RH  041%=      5-min Rain = 0
KOD1 190043Z 16017KT 35/20 A298 RMK A01 T03520202  RH  042%=      5-min Rain = 0
KOD1 190044Z 16016KT 35/20 A298 RMK A01 T03510202  RH  042%=      5-min Rain = 0
KOD1 190045Z 16015KT 35/20 A298 RMK A01 T03510202  RH  042%=      5-min Rain = 0
KOD1 190046Z 16015KT 35/20 A2981 RMK A01 T03510202  RH  042%=      5-min Rain = 0
KOD1 190047Z 16016KT 35/20 A298 RMK A01 T03510201  RH  042%=      5-min Rain = 0
KOD1 190048Z 15018KT 35/20 A2981 RMK A01 T03510201  RH  042%=      5-min Rain = 0
KOD1 190049Z 16016G21KT 35/20 A2981 RMK A01 T03510201  RH  041%=      5-min Rain = 0
KOD1 190050Z 16018G23KT 35/20 A2981 RMK A01 T03510200  RH  041%=      5-min Rain = 0
KOD1 190051Z 16016KT 35/20 A2981 RMK A01 T03510200  RH  041%=      5-min Rain = 0
KOD1 190052Z 15016KT 35/20 A2981 RMK A01 T03510200  RH  042%=      5-min Rain = 0
KOD1 190053Z 16015KT 35/20 A2981 RMK A01 T03500200  RH  041%=      5-min Rain = 0
KOD1 190054Z 16016KT 35/20 A2981 RMK A01 T03500200  RH  041%=      5-min Rain = 0
KOD1 190055Z 16014G19KT 35/20 A2981 RMK A01 T03500200  RH  042%=      5-min Rain = 0
KOD1 190056Z 16016G21KT 35/20 A298 RMK A01 T03490200  RH  042%=      5-min Rain = 0
KOD1 190057Z 15016KT 35/20 A2981 RMK A01 T03490200  RH  042%=      5-min Rain = 0
KOD1 190058Z 15017KT 35/20 A298 RMK A01 T03490199  RH  042%=      5-min Rain = 0
KOD1 190059Z 15016KT 35/20 A298 RMK A01 T03490199  RH  042%=      5-min Rain = 0
KOD1 190100Z 16016KT 35/20 A298 RMK A01 T03490200  RH  042%=      5-min Rain = 0
KOD1 190101Z 16016KT 35/20 A2981 RMK A01 T03480200  RH  042%=      5-min Rain = 0
KOD1 190102Z 16011KT 35/20 A2981 RMK A01 T03480201  RH  042%=      5-min Rain = 0
KOD1 190103Z 16017KT 35/20 A2981 RMK A01 T03470200  RH  042%=      5-min Rain = 0
KOD1 190104Z 16017KT 35/20 A2981 RMK A01 T03470199  RH  042%=      5-min Rain = 0
KOD1 190105Z 16018KT 35/20 A2981 RMK A01 T03470199  RH  042%=      5-min Rain = 0
KOD1 190106Z 16019KT 35/20 A298 RMK A01 T03470198  RH  042%=      5-min Rain = 0
KOD1 190107Z 16016KT 35/20 A2981 RMK A01 T03470198  RH  042%=      5-min Rain = 0
KOD1 190108Z 16015KT 35/20 A2981 RMK A01 T03460199  RH  042%=      5-min Rain = 0
KOD1 190109Z 16015KT 35/20 A2981 RMK A01 T03450199  RH  042%=      5-min Rain = 0
KOD1 190110Z 15018KT 35/20 A2981 RMK A01 T03450199  RH  042%=      5-min Rain = 0
KOD1 190111Z 16016KT 35/20 A298 RMK A01 T03450198  RH  042%=      5-min Rain = 0
KOD1 190112Z 15015KT 35/20 A298 RMK A01 T03450199  RH  042%=      5-min Rain = 0
KOD1 190113Z 16017KT 35/20 A2981 RMK A01 T03450199  RH  042%=      5-min Rain = 0
KOD1 190114Z 16014G19KT 35/20 A2981 RMK A01 T03450199  RH  042%=      5-min Rain = 0
KOD1 190115Z 16015KT 34/20 A2981 RMK A01 T03440199  RH  043%=      5-min Rain = 0
KOD1 190116Z 16012KT 34/20 A2981 RMK A01 T03430199  RH  043%=      5-min Rain = 0
KOD1 190117Z 16012KT 34/20 A2981 RMK A01 T03430200  RH  043%=      5-min Rain = 0
KOD1 190118Z 16013KT 34/20 A2981 RMK A01 T03420200  RH  043%=      5-min Rain = 0
KOD1 190119Z 15013KT 34/20 A2981 RMK A01 T03420200  RH  043%=      5-min Rain = 0
KOD1 190120Z 16014KT 34/20 A2981 RMK A01 T03420200  RH  043%=      5-min Rain = 0
KOD1 190121Z 15016KT 34/20 A2981 RMK A01 T03420199  RH  043%=      5-min Rain = 0
KOD1 190122Z 16019KT 34/20 A2981 RMK A01 T03420198  RH  043%=      5-min Rain = 0
KOD1 190123Z 15016KT 34/20 A2981 RMK A01 T03430199  RH  043%=      5-min Rain = 0
KOD1 190124Z 15016KT 34/20 A2981 RMK A01 T03420199  RH  043%=      5-min Rain = 0
KOD1 190125Z 15015KT 34/20 A2981 RMK A01 T03420199  RH  043%=      5-min Rain = 0
KOD1 190126Z 15017G24KT 34/20 A2981 RMK A01 T03420199  RH  043%=      5-min Rain = 0
KOD1 190127Z 16018KT 34/20 A2981 RMK A01 T03410198  RH  043%=      5-min Rain = 0
KOD1 190128Z 16017KT 34/20 A2981 RMK A01 T03420199  RH  043%=      5-min Rain = 0
KOD1 190129Z 16015KT 34/20 A2981 RMK A01 T03410199  RH  043%=      5-min Rain = 0
KOD1 190130Z 15015KT 34/20 A2981 RMK A01 T03410199  RH  044%=      5-min Rain = 0
KOD1 190131Z 15014KT 34/20 A2981 RMK A01 T03410200  RH  044%=      5-min Rain = 0
KOD1 190132Z 15014KT 34/20 A2981 RMK A01 T03400200  RH  044%=      5-min Rain = 0
KOD1 190133Z 15015KT 34/20 A2981 RMK A01 T03390200  RH  044%=      5-min Rain = 0
KOD1 190134Z 15014KT 34/20 A2981 RMK A01 T03390200  RH  044%=      5-min Rain = 0
KOD1 190135Z 15013KT 34/20 A2981 RMK A01 T03390200  RH  044%=      5-min Rain = 0
KOD1 190136Z 15013KT 34/20 A2981 RMK A01 T03380201  RH  045%=      5-min Rain = 0
KOD1 190137Z 15014KT 34/20 A2981 RMK A01 T03370201  RH  045%=      5-min Rain = 0
KOD1 190138Z 15016KT 34/20 A2981 RMK A01 T03370200  RH  045%=      5-min Rain = 0
KOD1 190139Z 15016KT 34/20 A2981 RMK A01 T03370200  RH  045%=      5-min Rain = 0
KOD1 190140Z 15016KT 34/20 A2981 RMK A01 T03370200  RH  045%=      5-min Rain = 0
KOD1 190141Z 15017KT 34/20 A2981 RMK A01 T03370200  RH  045%=      5-min Rain = 0
KOD1 190142Z 15015KT 34/20 A2981 RMK A01 T03370200  RH  045%=      5-min Rain = 0
KOD1 190143Z 15014KT 34/20 A2981 RMK A01 T03360200  RH  045%=      5-min Rain = 0
KOD1 190144Z 15014KT 34/20 A2981 RMK A01 T03360200  RH  045%=      5-min Rain = 0
KOD1 190145Z 15017KT 34/20 A2981 RMK A01 T03360200  RH  045%=      5-min Rain = 0
KOD1 190146Z 15015KT 34/20 A2981 RMK A01 T03360200  RH  045%=      5-min Rain = 0
KOD1 190147Z 15016KT 34/20 A2981 RMK A01 T03360200  RH  045%=      5-min Rain = 0
KOD1 190148Z 15016KT 34/20 A2981 RMK A01 T03360200  RH  045%=      5-min Rain = 0
KOD1 190149Z 15016KT 34/20 A2981 RMK A01 T03360200  RH  045%=      5-min Rain = 0
KOD1 190150Z 15013KT 34/20 A2981 RMK A01 T03350201  RH  045%=      5-min Rain = 0
KOD1 190151Z 15014KT 33/20 A2981 RMK A01 T03340201  RH  046%=      5-min Rain = 0
KOD1 190152Z 15014KT 33/20 A2981 RMK A01 T03340201  RH  046%=      5-min Rain = 0
KOD1 190153Z 15013KT 33/20 A2981 RMK A01 T03330201  RH  046%=      5-min Rain = 0
KOD1 190154Z 15015KT 33/20 A2981 RMK A01 T03330202  RH  046%=      5-min Rain = 0
KOD1 190155Z 15015KT 33/20 A2981 RMK A01 T03330202  RH  046%=      5-min Rain = 0
KOD1 190156Z 15014KT 33/20 A2981 RMK A01 T03330202  RH  046%=      5-min Rain = 0
KOD1 190157Z 15015KT 33/20 A2981 RMK A01 T03320202  RH  046%=      5-min Rain = 0
KOD1 190158Z 14014KT 33/20 A2981 RMK A01 T03320202  RH  046%=      5-min Rain = 0
KOD1 190159Z 15014KT 33/20 A2981 RMK A01 T03320202  RH  047%=      5-min Rain = 0
KOD1 190200Z 15013KT 33/20 A2981 RMK A01 T03320203  RH  047%=      5-min Rain = 0
KOD1 190201Z 14014KT 33/20 A2981 RMK A01 T03310203  RH  047%=      5-min Rain = 0
KOD1 190202Z 15015KT 33/20 A2982 RMK A01 T03310203  RH  047%=      5-min Rain = 0
KOD1 190203Z 14014KT 33/20 A2982 RMK A01 T03310203  RH  047%=      5-min Rain = 0
KOD1 190204Z 14015KT 33/20 A2982 RMK A01 T03310203  RH  047%=      5-min Rain = 0
KOD1 190205Z 14015KT 33/20 A2982 RMK A01 T03300203  RH  047%=      5-min Rain = 0
KOD1 190206Z 15013KT 33/20 A2982 RMK A01 T03290203  RH  047%=      5-min Rain = 0
KOD1 190207Z 14014KT 33/20 A2982 RMK A01 T03290203  RH  048%=      5-min Rain = 0
KOD1 190208Z 14014KT 33/20 A2982 RMK A01 T03280203  RH  048%=      5-min Rain = 0
KOD1 190209Z 15014KT 33/20 A2982 RMK A01 T03290203  RH  047%=      5-min Rain = 0
KOD1 190210Z 15016KT 33/20 A2982 RMK A01 T03280203  RH  048%=      5-min Rain = 0
KOD1 190211Z 15016KT 33/20 A2982 RMK A01 T03280202  RH  047%=      5-min Rain = 0
KOD1 190212Z 15015KT 33/20 A2982 RMK A01 T03280203  RH  048%=      5-min Rain = 0
KOD1 190213Z 15014KT 33/20 A2982 RMK A01 T03280203  RH  048%=      5-min Rain = 0
KOD1 190214Z 15013G18KT 33/20 A2982 RMK A01 T03260203  RH  048%=      5-min Rain = 0
KOD1 190215Z 15014KT 33/20 A2982 RMK A01 T03260203  RH  048%=      5-min Rain = 0
KOD1 190216Z 15014KT 33/20 A2982 RMK A01 T03260202  RH  048%=      5-min Rain = 0
KOD1 190217Z 15014KT 33/20 A2982 RMK A01 T03260202  RH  048%=      5-min Rain = 0
KOD1 190218Z 15014KT 33/20 A2982 RMK A01 T03260202  RH  048%=      5-min Rain = 0
KOD1 190219Z 15015KT 33/20 A2982 RMK A01 T03260202  RH  048%=      5-min Rain = 0
KOD1 190220Z 15015KT 33/20 A2982 RMK A01 T03260201  RH  048%=      5-min Rain = 0
KOD1 190221Z 15014KT 33/20 A2982 RMK A01 T03260201  RH  048%=      5-min Rain = 0
KOD1 190222Z 15015KT 33/20 A2982 RMK A01 T03260201  RH  048%=      5-min Rain = 0
KOD1 190223Z 15013KT 33/20 A2982 RMK A01 T03250201  RH  048%=      5-min Rain = 0
KOD1 190224Z 15016KT 33/20 A2982 RMK A01 T03250201  RH  048%=      5-min Rain = 0
KOD1 190225Z 15015KT 33/20 A2982 RMK A01 T03250201  RH  048%=      5-min Rain = 0
KOD1 190226Z 15015KT 33/20 A2982 RMK A01 T03250200  RH  048%=      5-min Rain = 0
KOD1 190227Z 15014KT 32/20 A2982 RMK A01 T03240200  RH  048%=      5-min Rain = 0
KOD1 190228Z 15017KT 32/20 A2982 RMK A01 T03240200  RH  048%=      5-min Rain = 0
KOD1 190229Z 15015KT 33/20 A2982 RMK A01 T03250200  RH  048%=      5-min Rain = 0
KOD1 190230Z 15014KT 33/20 A2982 RMK A01 T03250200  RH  048%=      5-min Rain = 0
KOD1 190231Z 15014KT 32/20 A2982 RMK A01 T03240199  RH  048%=      5-min Rain = 0
KOD1 190232Z 15013KT 32/20 A2982 RMK A01 T03230199  RH  048%=      5-min Rain = 0
KOD1 190233Z 15013KT 32/20 A2982 RMK A01 T03230199  RH  048%=      5-min Rain = 0
KOD1 190234Z 15015KT 32/20 A2982 RMK A01 T03230199  RH  048%=      5-min Rain = 0
KOD1 190235Z 15016KT 32/20 A2982 RMK A01 T03230199  RH  048%=      5-min Rain = 0
KOD1 190236Z 15016KT 32/20 A2982 RMK A01 T03230198  RH  048%=      5-min Rain = 0
KOD1 190237Z 15016KT 32/20 A2982 RMK A01 T03230198  RH  047%=      5-min Rain = 0
KOD1 190238Z 15013KT 32/20 A2982 RMK A01 T03230198  RH  048%=      5-min Rain = 0
KOD1 190239Z 15015KT 32/20 A2982 RMK A01 T03230198  RH  048%=      5-min Rain = 0
KOD1 190240Z 15015KT 32/20 A2982 RMK A01 T03220197  RH  048%=      5-min Rain = 0
KOD1 190241Z 15015KT 32/20 A2982 RMK A01 T03220197  RH  048%=      5-min Rain = 0
KOD1 190242Z 15014KT 32/20 A2982 RMK A01 T03220197  RH  048%=      5-min Rain = 0
KOD1 190243Z 15015KT 32/20 A2982 RMK A01 T03220197  RH  048%=      5-min Rain = 0
KOD1 190244Z 15013KT 32/20 A2982 RMK A01 T03220197  RH  048%=      5-min Rain = 0
KOD1 190245Z 15013KT 32/20 A2982 RMK A01 T03210196  RH  048%=      5-min Rain = 0
KOD1 190246Z 15014KT 32/20 A2982 RMK A01 T03200196  RH  048%=      5-min Rain = 0
KOD1 190247Z 15013KT 32/20 A2982 RMK A01 T03200196  RH  048%=      5-min Rain = 0
KOD1 190248Z 15015KT 32/20 A2982 RMK A01 T03200195  RH  048%=      5-min Rain = 0
KOD1 190249Z 15013KT 32/20 A2982 RMK A01 T03200195  RH  048%=      5-min Rain = 0
KOD1 190250Z 15013KT 32/20 A2982 RMK A01 T03200195  RH  048%=      5-min Rain = 0
KOD1 190251Z 15015KT 32/20 A2982 RMK A01 T03200195  RH  047%=      5-min Rain = 0
KOD1 190252Z 15014KT 32/20 A2982 RMK A01 T03200195  RH  047%=      5-min Rain = 0
KOD1 190253Z 15013KT 32/20 A2982 RMK A01 T03200195  RH  047%=      5-min Rain = 0
KOD1 190254Z 15014KT 32/19 A2982 RMK A01 T03200194  RH  047%=      5-min Rain = 0
KOD1 190255Z 15013KT 32/19 A2982 RMK A01 T03200194  RH  047%=      5-min Rain = 0
KOD1 190256Z 15015KT 32/19 A2982 RMK A01 T03200193  RH  047%=      5-min Rain = 0
KOD1 190257Z 15014KT 32/19 A2982 RMK A01 T03200193  RH  047%=      5-min Rain = 0
KOD1 190258Z 15013KT 32/19 A2982 RMK A01 T03200193  RH  047%=      5-min Rain = 0
KOD1 190259Z 15013KT 32/19 A2982 RMK A01 T03200193  RH  047%=      5-min Rain = 0
KOD1 190300Z 15013KT 32/19 A2982 RMK A01 T03200193  RH  047%=      5-min Rain = 0
KOD1 190301Z 15014KT 32/19 A2982 RMK A01 T03190192  RH  047%=      5-min Rain = 0
KOD1 190302Z 15013KT 32/19 A2982 RMK A01 T03190193  RH  047%=      5-min Rain = 0
KOD1 190303Z 15013KT 32/19 A2982 RMK A01 T03190192  RH  047%=      5-min Rain = 0
KOD1 190304Z 15015KT 32/19 A2982 RMK A01 T03180192  RH  047%=      5-min Rain = 0
KOD1 190305Z 15015KT 32/19 A2982 RMK A01 T03190191  RH  047%=      5-min Rain = 0
KOD1 190306Z 15015KT 32/19 A2982 RMK A01 T03190192  RH  047%=      5-min Rain = 0
KOD1 190307Z 15014KT 32/19 A2982 RMK A01 T03190191  RH  047%=      5-min Rain = 0
KOD1 190308Z 15012KT 32/19 A2983 RMK A01 T03190191  RH  047%=      5-min Rain = 0
KOD1 190309Z 15013KT 32/19 A2982 RMK A01 T03180191  RH  047%=      5-min Rain = 0
KOD1 190310Z 15013KT 32/19 A2983 RMK A01 T03180191  RH  047%=      5-min Rain = 0
KOD1 190311Z 15013KT 32/19 A2983 RMK A01 T03170191  RH  047%=      5-min Rain = 0
KOD1 190312Z 15013KT 32/19 A2983 RMK A01 T03170190  RH  047%=      5-min Rain = 0
KOD1 190313Z 15011KT 32/19 A2983 RMK A01 T03170190  RH  047%=      5-min Rain = 0
KOD1 190314Z 15013KT 32/19 A2983 RMK A01 T03170191  RH  047%=      5-min Rain = 0
KOD1 190315Z 15011KT 32/19 A2983 RMK A01 T03160190  RH  047%=      5-min Rain = 0
KOD1 190316Z 15012KT 32/19 A2983 RMK A01 T03160190  RH  047%=      5-min Rain = 0
KOD1 190317Z 15011KT 32/19 A2983 RMK A01 T03150190  RH  047%=      5-min Rain = 0
KOD1 190318Z 15012KT 32/19 A2983 RMK A01 T03150189  RH  047%=      5-min Rain = 0
KOD1 190319Z 15014G19KT 32/19 A2983 RMK A01 T03160189  RH  047%=      5-min Rain = 0
KOD1 190320Z 15015KT 32/19 A2983 RMK A01 T03160189  RH  047%=      5-min Rain = 0
KOD1 190321Z 15013KT 32/19 A2983 RMK A01 T03170189  RH  047%=      5-min Rain = 0
KOD1 190322Z 15013KT 32/19 A2983 RMK A01 T03160189  RH  047%=      5-min Rain = 0
KOD1 190323Z 15014KT 32/19 A2983 RMK A01 T03160189  RH  047%=      5-min Rain = 0
KOD1 190324Z 15015KT 32/19 A2983 RMK A01 T03160188  RH  047%=      5-min Rain = 0
KOD1 190325Z 15013KT 32/19 A2983 RMK A01 T03160189  RH  047%=      5-min Rain = 0
KOD1 190326Z 15014KT 32/19 A2983 RMK A01 T03160189  RH  047%=      5-min Rain = 0
KOD1 190327Z 15013KT 32/19 A2983 RMK A01 T03160188  RH  047%=      5-min Rain = 0
KOD1 190328Z 15013KT 32/19 A2983 RMK A01 T03160188  RH  047%=      5-min Rain = 0
KOD1 190329Z 15014KT 32/19 A2983 RMK A01 T03150188  RH  047%=      5-min Rain = 0
KOD1 190330Z 15013KT 32/19 A2983 RMK A01 T03160188  RH  047%=      5-min Rain = 0
KOD1 190331Z 15014KT 32/19 A2983 RMK A01 T03150188  RH  047%=      5-min Rain = 0
KOD1 190332Z 15012KT 32/19 A2983 RMK A01 T03150188  RH  047%=      5-min Rain = 0
KOD1 190333Z 15013KT 32/19 A2983 RMK A01 T03150188  RH  047%=      5-min Rain = 0
KOD1 190334Z 15013KT 31/19 A2983 RMK A01 T03140187  RH  047%=      5-min Rain = 0
KOD1 190335Z 15014KT 31/19 A2983 RMK A01 T03140187  RH  047%=      5-min Rain = 0
KOD1 190336Z 15014KT 32/19 A2983 RMK A01 T03150187  RH  047%=      5-min Rain = 0
KOD1 190337Z 15013KT 32/19 A2983 RMK A01 T03150187  RH  047%=      5-min Rain = 0
KOD1 190338Z 15014KT 32/19 A2983 RMK A01 T03150187  RH  047%=      5-min Rain = 0
KOD1 190339Z 15015KT 32/19 A2983 RMK A01 T03150187  RH  046%=      5-min Rain = 0
KOD1 190340Z 15014KT 32/19 A2984 RMK A01 T03150187  RH  046%=      5-min Rain = 0
KOD1 190341Z 15014KT 32/19 A2984 RMK A01 T03150187  RH  046%=      5-min Rain = 0
KOD1 190342Z 15014KT 32/19 A2984 RMK A01 T03150187  RH  047%=      5-min Rain = 0
KOD1 190343Z 15014KT 32/19 A2984 RMK A01 T03150187  RH  047%=      5-min Rain = 0
KOD1 190344Z 15015KT 31/19 A2984 RMK A01 T03140186  RH  047%=      5-min Rain = 0
KOD1 190345Z 15015KT 32/19 A2984 RMK A01 T03150186  RH  046%=      5-min Rain = 0
KOD1 190346Z 15014KT 32/19 A2984 RMK A01 T03150187  RH  046%=      5-min Rain = 0
KOD1 190347Z 15013G18KT 32/19 A2984 RMK A01 T03150187  RH  047%=      5-min Rain = 0
KOD1 190348Z 15013KT 31/19 A2984 RMK A01 T03140187  RH  047%=      5-min Rain = 0
KOD1 190349Z 15016KT 31/19 A2984 RMK A01 T03140187  RH  047%=      5-min Rain = 0
KOD1 190350Z 15014KT 31/19 A2984 RMK A01 T03140187  RH  047%=      5-min Rain = 0
KOD1 190351Z 15014KT 31/19 A2984 RMK A01 T03140187  RH  047%=      5-min Rain = 0
KOD1 190352Z 15014KT 31/19 A2984 RMK A01 T03140187  RH  047%=      5-min Rain = 0
KOD1 190353Z 15014KT 31/19 A2984 RMK A01 T03130187  RH  047%=      5-min Rain = 0
KOD1 190354Z 15013KT 31/19 A2984 RMK A01 T03130187  RH  047%=      5-min Rain = 0
KOD1 190355Z 15013KT 31/19 A2984 RMK A01 T03120188  RH  047%=      5-min Rain = 0
KOD1 190356Z 15014KT 31/19 A2984 RMK A01 T03120187  RH  048%=      5-min Rain = 0
KOD1 190357Z 15013KT 31/19 A2984 RMK A01 T03120188  RH  048%=      5-min Rain = 0
KOD1 190358Z 15012KT 31/19 A2984 RMK A01 T03110188  RH  048%=      5-min Rain = 0
KOD1 190359Z 15012KT 31/19 A2984 RMK A01 T03110188  RH  048%=      5-min Rain = 0
KOD1 190400Z 15013KT 31/19 A2984 RMK A01 T03110188  RH  048%=      5-min Rain = 0
KOD1 190401Z 14013KT 31/19 A2984 RMK A01 T03110188  RH  048%=      5-min Rain = 0
KOD1 190402Z 15015KT 31/19 A2984 RMK A01 T03110187  RH  048%=      5-min Rain = 0
KOD1 190403Z 15015KT 31/19 A2984 RMK A01 T03110187  RH  048%=      5-min Rain = 0
KOD1 190404Z 14011KT 31/19 A2984 RMK A01 T03110187  RH  048%=      5-min Rain = 0
KOD1 190405Z 14011KT 31/19 A2984 RMK A01 T03100188  RH  048%=      5-min Rain = 0
KOD1 190406Z 15013KT 31/19 A2984 RMK A01 T03100187  RH  048%=      5-min Rain = 0
KOD1 190407Z 15012KT 31/19 A2984 RMK A01 T03100187  RH  048%=      5-min Rain = 0
KOD1 190408Z 14014KT 31/19 A2984 RMK A01 T03100187  RH  048%=      5-min Rain = 0
KOD1 190409Z 14013KT 31/19 A2984 RMK A01 T03100187  RH  048%=      5-min Rain = 0
KOD1 190410Z 14011KT 31/19 A2984 RMK A01 T03100188  RH  048%=      5-min Rain = 0
KOD1 190411Z 15013KT 31/19 A2984 RMK A01 T03090188  RH  049%=      5-min Rain = 0
KOD1 190412Z 14012KT 31/19 A2984 RMK A01 T03090188  RH  048%=      5-min Rain = 0
KOD1 190413Z 14012KT 31/19 A2984 RMK A01 T03090188  RH  049%=      5-min Rain = 0
KOD1 190414Z 14013KT 31/19 A2984 RMK A01 T03080188  RH  049%=      5-min Rain = 0
KOD1 190415Z 14012KT 31/19 A2984 RMK A01 T03080188  RH  049%=      5-min Rain = 0
KOD1 190416Z 14012KT 31/19 A2984 RMK A01 T03080188  RH  049%=      5-min Rain = 0
KOD1 190417Z 14011KT 31/19 A2984 RMK A01 T03070188  RH  049%=      5-min Rain = 0
KOD1 190418Z 15013KT 31/19 A2984 RMK A01 T03070188  RH  049%=      5-min Rain = 0
KOD1 190419Z 14010KT 31/19 A2984 RMK A01 T03070189  RH  049%=      5-min Rain = 0
KOD1 190420Z 14011KT 31/19 A2984 RMK A01 T03060189  RH  050%=      5-min Rain = 0
KOD1 190421Z 14013KT 31/19 A2984 RMK A01 T03050189  RH  050%=      5-min Rain = 0
KOD1 190422Z 14013KT 31/19 A2984 RMK A01 T03050189  RH  050%=      5-min Rain = 0
KOD1 190423Z 14013KT 31/19 A2985 RMK A01 T03050189  RH  050%=      5-min Rain = 0
KOD1 190424Z 14014KT 31/19 A2985 RMK A01 T03050189  RH  050%=      5-min Rain = 0
KOD1 190425Z 14013KT 31/19 A2985 RMK A01 T03050188  RH  050%=      5-min Rain = 0
KOD1 190426Z 14013KT 31/19 A2985 RMK A01 T03050189  RH  050%=      5-min Rain = 0
KOD1 190427Z 14014KT 30/19 A2985 RMK A01 T03040188  RH  050%=      5-min Rain = 0
KOD1 190428Z 14012KT 30/19 A2985 RMK A01 T03040189  RH  050%=      5-min Rain = 0
KOD1 190429Z 14013KT 30/19 A2985 RMK A01 T03040189  RH  050%=      5-min Rain = 0
KOD1 190430Z 14013KT 30/19 A2985 RMK A01 T03040188  RH  050%=      5-min Rain = 0
KOD1 190431Z 14015KT 30/19 A2985 RMK A01 T03040188  RH  050%=      5-min Rain = 0
KOD1 190432Z 14015KT 31/19 A2985 RMK A01 T03050188  RH  050%=      5-min Rain = 0
KOD1 190433Z 14014G19KT 31/19 A2985 RMK A01 T03050188  RH  050%=      5-min Rain = 0
KOD1 190434Z 14013KT 30/19 A2985 RMK A01 T03040188  RH  050%=      5-min Rain = 0
KOD1 190435Z 14012KT 30/19 A2985 RMK A01 T03040188  RH  050%=      5-min Rain = 0
KOD1 190436Z 15012KT 30/19 A2985 RMK A01 T03040188  RH  050%=      5-min Rain = 0
KOD1 190437Z 14012KT 30/19 A2985 RMK A01 T03040188  RH  050%=      5-min Rain = 0
KOD1 190438Z 15011KT 30/19 A2985 RMK A01 T03030188  RH  050%=      5-min Rain = 0
KOD1 190439Z 15015KT 30/19 A2985 RMK A01 T03030188  RH  050%=      5-min Rain = 0
KOD1 190440Z 14012KT 30/19 A2985 RMK A01 T03030187  RH  050%=      5-min Rain = 0
KOD1 190441Z 14014KT 30/19 A2985 RMK A01 T03030188  RH  050%=      5-min Rain = 0
KOD1 190442Z 15014KT 30/19 A2985 RMK A01 T03030188  RH  050%=      5-min Rain = 0
KOD1 190443Z 14014KT 30/19 A2985 RMK A01 T03030188  RH  050%=      5-min Rain = 0
KOD1 190444Z 15015KT 30/19 A2985 RMK A01 T03030188  RH  050%=      5-min Rain = 0
KOD1 190445Z 14015KT 30/19 A2985 RMK A01 T03030188  RH  050%=      5-min Rain = 0
KOD1 190446Z 14013KT 30/19 A2985 RMK A01 T03030188  RH  050%=      5-min Rain = 0
KOD1 190447Z 15014KT 30/19 A2985 RMK A01 T03030189  RH  051%=      5-min Rain = 0
KOD1 190448Z 15014KT 30/19 A2985 RMK A01 T03020189  RH  051%=      5-min Rain = 0
KOD1 190449Z 15016KT 30/19 A2985 RMK A01 T03020189  RH  051%=      5-min Rain = 0
KOD1 190450Z 15012KT 30/19 A2985 RMK A01 T03020189  RH  051%=      5-min Rain = 0
KOD1 190451Z 15013KT 30/19 A2985 RMK A01 T03010190  RH  051%=      5-min Rain = 0
KOD1 190452Z 15014KT 30/19 A2985 RMK A01 T03010189  RH  051%=      5-min Rain = 0
KOD1 190453Z 15014KT 30/19 A2985 RMK A01 T03000189  RH  051%=      5-min Rain = 0
KOD1 190454Z 15014KT 30/19 A2985 RMK A01 T03000190  RH  051%=      5-min Rain = 0
KOD1 190455Z 15015KT 30/19 A2985 RMK A01 T03000189  RH  051%=      5-min Rain = 0
KOD1 190456Z 15015KT 30/19 A2985 RMK A01 T03010190  RH  051%=      5-min Rain = 0
KOD1 190457Z 15013KT 30/19 A2985 RMK A01 T03000190  RH  052%=      5-min Rain = 0
KOD1 190458Z 15015KT 30/19 A2985 RMK A01 T03000190  RH  052%=      5-min Rain = 0
KOD1 190459Z 15017KT 30/19 A2985 RMK A01 T02990190  RH  052%=      5-min Rain = 0

Page generated in 0.0855 seconds.